<?xml version="1.0" encoding="UTF-8" standalone="no" ?>
<gpx xmlns="http://www.topografix.com/GPX/1/1" creator="MapSource 6.16.3" version="1.1" xmlns:xsi="http://www.w3.org/2001/XMLSchema-instance" xsi:schemaLocation="http://www.topografix.com/GPX/1/1 http://www.topografix.com/GPX/1/1/gpx.xsd">

  <metadata>
    <link href="http://www.garmin.com">
      <text>Garmin International</text>
    </link>
    <time>2016-09-17T08:09:41Z</time>
    <bounds maxlat="45.61223030090332" maxlon="9.010720252990723" minlat="45.590622425079346" minlon="8.969542980194092"/>
  </metadata>

  <trk>
    <name>ACTIVE LOG</name>
    <trkseg>
      <trkpt lat="45.608839988708496" lon="9.007737636566162">
        <ele>201.0528564453125</ele>
        <time>2007-05-27T07:55:22Z</time>
      </trkpt>
      <trkpt lat="45.608818531036377" lon="9.007737636566162">
        <ele>201.5335693359375</ele>
        <time>2007-05-27T07:58:01Z</time>
      </trkpt>
      <trkpt lat="45.608839988708496" lon="9.0077805519104">
        <ele>202.0142822265625</ele>
        <time>2007-05-27T08:00:42Z</time>
      </trkpt>
      <trkpt lat="45.608861446380615" lon="9.007866382598877">
        <ele>202.0142822265625</ele>
        <time>2007-05-27T08:00:50Z</time>
      </trkpt>
      <trkpt lat="45.608882904052734" lon="9.007930755615234">
        <ele>201.5335693359375</ele>
        <time>2007-05-27T08:00:59Z</time>
      </trkpt>
      <trkpt lat="45.608904361724854" lon="9.008016586303711">
        <ele>201.5335693359375</ele>
        <time>2007-05-27T08:01:08Z</time>
      </trkpt>
      <trkpt lat="45.608904361724854" lon="9.008059501647949">
        <ele>201.5335693359375</ele>
        <time>2007-05-27T08:01:16Z</time>
      </trkpt>
      <trkpt lat="45.608904361724854" lon="9.008080959320068">
        <ele>201.5335693359375</ele>
        <time>2007-05-27T08:01:22Z</time>
      </trkpt>
      <trkpt lat="45.608947277069092" lon="9.008231163024902">
        <ele>201.0528564453125</ele>
        <time>2007-05-27T08:01:31Z</time>
      </trkpt>
      <trkpt lat="45.60899019241333" lon="9.00855302810669">
        <ele>200.572265625</ele>
        <time>2007-05-27T08:01:40Z</time>
      </trkpt>
      <trkpt lat="45.609054565429687" lon="9.009068012237549">
        <ele>200.572265625</ele>
        <time>2007-05-27T08:01:52Z</time>
      </trkpt>
      <trkpt lat="45.608968734741211" lon="9.009239673614502">
        <ele>200.572265625</ele>
        <time>2007-05-27T08:01:57Z</time>
      </trkpt>
      <trkpt lat="45.60875415802002" lon="9.009411334991455">
        <ele>200.572265625</ele>
        <time>2007-05-27T08:02:06Z</time>
      </trkpt>
      <trkpt lat="45.6087327003479" lon="9.009454250335693">
        <ele>200.572265625</ele>
        <time>2007-05-27T08:02:08Z</time>
      </trkpt>
      <trkpt lat="45.60875415802002" lon="9.009647369384766">
        <ele>200.572265625</ele>
        <time>2007-05-27T08:02:16Z</time>
      </trkpt>
      <trkpt lat="45.608775615692139" lon="9.009668827056885">
        <ele>200.572265625</ele>
        <time>2007-05-27T08:02:17Z</time>
      </trkpt>
      <trkpt lat="45.60875415802002" lon="9.009819030761719">
        <ele>200.572265625</ele>
        <time>2007-05-27T08:02:22Z</time>
      </trkpt>
      <trkpt lat="45.608582496643066" lon="9.009990692138672">
        <ele>201.5335693359375</ele>
        <time>2007-05-27T08:02:29Z</time>
      </trkpt>
      <trkpt lat="45.608217716217041" lon="9.01029109954834">
        <ele>202.494873046875</ele>
        <time>2007-05-27T08:02:40Z</time>
      </trkpt>
      <trkpt lat="45.607852935791016" lon="9.010612964630127">
        <ele>202.9754638671875</ele>
        <time>2007-05-27T08:02:51Z</time>
      </trkpt>
      <trkpt lat="45.607659816741943" lon="9.010677337646484">
        <ele>202.9754638671875</ele>
        <time>2007-05-27T08:02:57Z</time>
      </trkpt>
      <trkpt lat="45.607552528381348" lon="9.010720252990723">
        <ele>202.494873046875</ele>
        <time>2007-05-27T08:03:03Z</time>
      </trkpt>
      <trkpt lat="45.607423782348633" lon="9.01052713394165">
        <ele>202.0142822265625</ele>
        <time>2007-05-27T08:03:09Z</time>
      </trkpt>
      <trkpt lat="45.607273578643799" lon="9.010076522827148">
        <ele>201.5335693359375</ele>
        <time>2007-05-27T08:03:19Z</time>
      </trkpt>
      <trkpt lat="45.607144832611084" lon="9.010140895843506">
        <ele>201.5335693359375</ele>
        <time>2007-05-27T08:03:24Z</time>
      </trkpt>
      <trkpt lat="45.606758594512939" lon="9.010419845581055">
        <ele>202.0142822265625</ele>
        <time>2007-05-27T08:03:36Z</time>
      </trkpt>
      <trkpt lat="45.606522560119629" lon="9.010591506958008">
        <ele>201.5335693359375</ele>
        <time>2007-05-27T08:03:46Z</time>
      </trkpt>
      <trkpt lat="45.60650110244751" lon="9.010591506958008">
        <ele>201.5335693359375</ele>
        <time>2007-05-27T08:03:47Z</time>
      </trkpt>
      <trkpt lat="45.606436729431152" lon="9.010505676269531">
        <ele>201.0528564453125</ele>
        <time>2007-05-27T08:03:52Z</time>
      </trkpt>
      <trkpt lat="45.606415271759033" lon="9.010376930236816">
        <ele>200.0916748046875</ele>
        <time>2007-05-27T08:04:01Z</time>
      </trkpt>
      <trkpt lat="45.606393814086914" lon="9.010269641876221">
        <ele>199.61083984375</ele>
        <time>2007-05-27T08:04:11Z</time>
      </trkpt>
      <trkpt lat="45.606350898742676" lon="9.010012149810791">
        <ele>199.61083984375</ele>
        <time>2007-05-27T08:04:23Z</time>
      </trkpt>
      <trkpt lat="45.606265068054199" lon="9.009711742401123">
        <ele>199.61083984375</ele>
        <time>2007-05-27T08:04:34Z</time>
      </trkpt>
      <trkpt lat="45.606200695037842" lon="9.009454250335693">
        <ele>201.0528564453125</ele>
        <time>2007-05-27T08:04:42Z</time>
      </trkpt>
      <trkpt lat="45.606114864349365" lon="9.009196758270264">
        <ele>201.5335693359375</ele>
        <time>2007-05-27T08:04:49Z</time>
      </trkpt>
      <trkpt lat="45.606093406677246" lon="9.009110927581787">
        <ele>201.5335693359375</ele>
        <time>2007-05-27T08:04:51Z</time>
      </trkpt>
      <trkpt lat="45.605943202972412" lon="9.009153842926025">
        <ele>200.572265625</ele>
        <time>2007-05-27T08:04:56Z</time>
      </trkpt>
      <trkpt lat="45.605621337890625" lon="9.009389877319336">
        <ele>201.0528564453125</ele>
        <time>2007-05-27T08:05:05Z</time>
      </trkpt>
      <trkpt lat="45.605406761169434" lon="9.009497165679932">
        <ele>200.572265625</ele>
        <time>2007-05-27T08:05:11Z</time>
      </trkpt>
      <trkpt lat="45.605299472808838" lon="9.009325504302979">
        <ele>201.0528564453125</ele>
        <time>2007-05-27T08:05:15Z</time>
      </trkpt>
      <trkpt lat="45.605106353759766" lon="9.008767604827881">
        <ele>200.572265625</ele>
        <time>2007-05-27T08:05:26Z</time>
      </trkpt>
      <trkpt lat="45.60499906539917" lon="9.008381366729736">
        <ele>200.572265625</ele>
        <time>2007-05-27T08:05:34Z</time>
      </trkpt>
      <trkpt lat="45.605106353759766" lon="9.008231163024902">
        <ele>200.572265625</ele>
        <time>2007-05-27T08:05:39Z</time>
      </trkpt>
      <trkpt lat="45.605385303497314" lon="9.007909297943115">
        <ele>200.0916748046875</ele>
        <time>2007-05-27T08:05:50Z</time>
      </trkpt>
      <trkpt lat="45.605428218841553" lon="9.007844924926758">
        <ele>200.0916748046875</ele>
        <time>2007-05-27T08:05:52Z</time>
      </trkpt>
      <trkpt lat="45.60575008392334" lon="9.007565975189209">
        <ele>200.0916748046875</ele>
        <time>2007-05-27T08:06:00Z</time>
      </trkpt>
      <trkpt lat="45.605900287628174" lon="9.007480144500732">
        <ele>200.0916748046875</ele>
        <time>2007-05-27T08:06:04Z</time>
      </trkpt>
      <trkpt lat="45.606114864349365" lon="9.007394313812256">
        <ele>200.572265625</ele>
        <time>2007-05-27T08:06:09Z</time>
      </trkpt>
      <trkpt lat="45.606672763824463" lon="9.006986618041992">
        <ele>200.0916748046875</ele>
        <time>2007-05-27T08:06:22Z</time>
      </trkpt>
      <trkpt lat="45.606887340545654" lon="9.006965160369873">
        <ele>200.0916748046875</ele>
        <time>2007-05-27T08:06:27Z</time>
      </trkpt>
      <trkpt lat="45.607016086578369" lon="9.006857872009277">
        <ele>202.0142822265625</ele>
        <time>2007-05-27T08:06:31Z</time>
      </trkpt>
      <trkpt lat="45.607209205627441" lon="9.006686210632324">
        <ele>202.9754638671875</ele>
        <time>2007-05-27T08:06:37Z</time>
      </trkpt>
      <trkpt lat="45.607187747955322" lon="9.006450176239014">
        <ele>203.4561767578125</ele>
        <time>2007-05-27T08:06:43Z</time>
      </trkpt>
      <trkpt lat="45.607037544250488" lon="9.005999565124512">
        <ele>202.9754638671875</ele>
        <time>2007-05-27T08:06:53Z</time>
      </trkpt>
      <trkpt lat="45.607101917266846" lon="9.005870819091797">
        <ele>202.494873046875</ele>
        <time>2007-05-27T08:06:57Z</time>
      </trkpt>
      <trkpt lat="45.607423782348633" lon="9.005613327026367">
        <ele>202.0142822265625</ele>
        <time>2007-05-27T08:07:08Z</time>
      </trkpt>
      <trkpt lat="45.607573986053467" lon="9.005506038665772">
        <ele>202.0142822265625</ele>
        <time>2007-05-27T08:07:13Z</time>
      </trkpt>
      <trkpt lat="45.607552528381348" lon="9.005355834960938">
        <ele>201.5335693359375</ele>
        <time>2007-05-27T08:07:17Z</time>
      </trkpt>
      <trkpt lat="45.607423782348633" lon="9.005141258239746">
        <ele>201.0528564453125</ele>
        <time>2007-05-27T08:07:24Z</time>
      </trkpt>
      <trkpt lat="45.607423782348633" lon="9.005098342895508">
        <ele>201.0528564453125</ele>
        <time>2007-05-27T08:07:25Z</time>
      </trkpt>
      <trkpt lat="45.607445240020752" lon="9.00503396987915">
        <ele>200.572265625</ele>
        <time>2007-05-27T08:07:28Z</time>
      </trkpt>
      <trkpt lat="45.607402324676514" lon="9.004840850830078">
        <ele>201.0528564453125</ele>
        <time>2007-05-27T08:07:33Z</time>
      </trkpt>
      <trkpt lat="45.607166290283203" lon="9.004368782043457">
        <ele>201.0528564453125</ele>
        <time>2007-05-27T08:07:41Z</time>
      </trkpt>
      <trkpt lat="45.606887340545654" lon="9.0043044090271">
        <ele>200.572265625</ele>
        <time>2007-05-27T08:07:46Z</time>
      </trkpt>
      <trkpt lat="45.606651306152344" lon="9.004476070404053">
        <ele>200.572265625</ele>
        <time>2007-05-27T08:07:50Z</time>
      </trkpt>
      <trkpt lat="45.606093406677246" lon="9.00479793548584">
        <ele>199.130126953125</ele>
        <time>2007-05-27T08:07:59Z</time>
      </trkpt>
      <trkpt lat="45.605835914611816" lon="9.004712104797363">
        <ele>199.130126953125</ele>
        <time>2007-05-27T08:08:03Z</time>
      </trkpt>
      <trkpt lat="45.605621337890625" lon="9.004669189453125">
        <ele>198.6495361328125</ele>
        <time>2007-05-27T08:08:07Z</time>
      </trkpt>
      <trkpt lat="45.605556964874268" lon="9.004712104797363">
        <ele>198.6495361328125</ele>
        <time>2007-05-27T08:08:08Z</time>
      </trkpt>
      <trkpt lat="45.605149269104004" lon="9.005098342895508">
        <ele>199.130126953125</ele>
        <time>2007-05-27T08:08:16Z</time>
      </trkpt>
      <trkpt lat="45.604805946350098" lon="9.005355834960938">
        <ele>198.1689453125</ele>
        <time>2007-05-27T08:08:22Z</time>
      </trkpt>
      <trkpt lat="45.604355335235596" lon="9.005677700042725">
        <ele>197.688232421875</ele>
        <time>2007-05-27T08:08:30Z</time>
      </trkpt>
      <trkpt lat="45.603969097137451" lon="9.005892276763916">
        <ele>197.688232421875</ele>
        <time>2007-05-27T08:08:37Z</time>
      </trkpt>
      <trkpt lat="45.603775978088379" lon="9.005935192108154">
        <ele>197.20751953125</ele>
        <time>2007-05-27T08:08:40Z</time>
      </trkpt>
      <trkpt lat="45.603475570678711" lon="9.006106853485107">
        <ele>196.7269287109375</ele>
        <time>2007-05-27T08:08:45Z</time>
      </trkpt>
      <trkpt lat="45.603153705596924" lon="9.006321430206299">
        <ele>196.246337890625</ele>
        <time>2007-05-27T08:08:51Z</time>
      </trkpt>
      <trkpt lat="45.602939128875732" lon="9.00629997253418">
        <ele>197.20751953125</ele>
        <time>2007-05-27T08:08:56Z</time>
      </trkpt>
      <trkpt lat="45.602917671203613" lon="9.006214141845703">
        <ele>197.20751953125</ele>
        <time>2007-05-27T08:08:57Z</time>
      </trkpt>
      <trkpt lat="45.602831840515137" lon="9.005913734436035">
        <ele>197.688232421875</ele>
        <time>2007-05-27T08:09:01Z</time>
      </trkpt>
      <trkpt lat="45.60274600982666" lon="9.005677700042725">
        <ele>197.688232421875</ele>
        <time>2007-05-27T08:09:04Z</time>
      </trkpt>
      <trkpt lat="45.602660179138184" lon="9.005334377288818">
        <ele>197.20751953125</ele>
        <time>2007-05-27T08:09:08Z</time>
      </trkpt>
      <trkpt lat="45.602552890777588" lon="9.005270004272461">
        <ele>196.7269287109375</ele>
        <time>2007-05-27T08:09:12Z</time>
      </trkpt>
      <trkpt lat="45.602467060089111" lon="9.005312919616699">
        <ele>196.246337890625</ele>
        <time>2007-05-27T08:09:14Z</time>
      </trkpt>
      <trkpt lat="45.602166652679443" lon="9.005527496337891">
        <ele>196.7269287109375</ele>
        <time>2007-05-27T08:09:21Z</time>
      </trkpt>
      <trkpt lat="45.601823329925537" lon="9.00578498840332">
        <ele>196.7269287109375</ele>
        <time>2007-05-27T08:09:31Z</time>
      </trkpt>
      <trkpt lat="45.601694583892822" lon="9.005849361419678">
        <ele>196.7269287109375</ele>
        <time>2007-05-27T08:09:35Z</time>
      </trkpt>
      <trkpt lat="45.601608753204346" lon="9.005742073059082">
        <ele>197.20751953125</ele>
        <time>2007-05-27T08:09:39Z</time>
      </trkpt>
      <trkpt lat="45.601458549499512" lon="9.005355834960938">
        <ele>197.20751953125</ele>
        <time>2007-05-27T08:09:49Z</time>
      </trkpt>
      <trkpt lat="45.601265430450439" lon="9.004862308502197">
        <ele>197.20751953125</ele>
        <time>2007-05-27T08:09:59Z</time>
      </trkpt>
      <trkpt lat="45.601029396057129" lon="9.004240036010742">
        <ele>197.20751953125</ele>
        <time>2007-05-27T08:10:11Z</time>
      </trkpt>
      <trkpt lat="45.600857734680176" lon="9.003832340240479">
        <ele>196.246337890625</ele>
        <time>2007-05-27T08:10:20Z</time>
      </trkpt>
      <trkpt lat="45.600793361663818" lon="9.003660678863525">
        <ele>196.246337890625</ele>
        <time>2007-05-27T08:10:23Z</time>
      </trkpt>
      <trkpt lat="45.600643157958984" lon="9.003682136535645">
        <ele>195.284912109375</ele>
        <time>2007-05-27T08:10:27Z</time>
      </trkpt>
      <trkpt lat="45.600450038909912" lon="9.003832340240479">
        <ele>195.284912109375</ele>
        <time>2007-05-27T08:10:31Z</time>
      </trkpt>
      <trkpt lat="45.600299835205078" lon="9.00378942489624">
        <ele>194.8043212890625</ele>
        <time>2007-05-27T08:10:35Z</time>
      </trkpt>
      <trkpt lat="45.600085258483887" lon="9.003102779388428">
        <ele>195.765625</ele>
        <time>2007-05-27T08:10:47Z</time>
      </trkpt>
      <trkpt lat="45.600042343139648" lon="9.002974033355713">
        <ele>196.246337890625</ele>
        <time>2007-05-27T08:10:49Z</time>
      </trkpt>
      <trkpt lat="45.599849224090576" lon="9.002523422241211">
        <ele>196.7269287109375</ele>
        <time>2007-05-27T08:10:56Z</time>
      </trkpt>
      <trkpt lat="45.599591732025146" lon="9.00205135345459">
        <ele>196.7269287109375</ele>
        <time>2007-05-27T08:11:03Z</time>
      </trkpt>
      <trkpt lat="45.599162578582764" lon="9.001235961914063">
        <ele>196.246337890625</ele>
        <time>2007-05-27T08:11:15Z</time>
      </trkpt>
      <trkpt lat="45.598819255828857" lon="9.000592231750488">
        <ele>195.284912109375</ele>
        <time>2007-05-27T08:11:28Z</time>
      </trkpt>
      <trkpt lat="45.598583221435547" lon="9.000184535980225">
        <ele>195.284912109375</ele>
        <time>2007-05-27T08:11:39Z</time>
      </trkpt>
      <trkpt lat="45.598411560058594" lon="8.999884128570557">
        <ele>192.401123046875</ele>
        <time>2007-05-27T08:11:51Z</time>
      </trkpt>
      <trkpt lat="45.598304271697998" lon="8.999712467193604">
        <ele>190.4783935546875</ele>
        <time>2007-05-27T08:11:58Z</time>
      </trkpt>
      <trkpt lat="45.598068237304688" lon="8.999347686767578">
        <ele>192.401123046875</ele>
        <time>2007-05-27T08:12:10Z</time>
      </trkpt>
      <trkpt lat="45.597896575927734" lon="8.999025821685791">
        <ele>192.401123046875</ele>
        <time>2007-05-27T08:12:18Z</time>
      </trkpt>
      <trkpt lat="45.597681999206543" lon="8.998682498931885">
        <ele>192.8817138671875</ele>
        <time>2007-05-27T08:12:27Z</time>
      </trkpt>
      <trkpt lat="45.597488880157471" lon="8.998339176177979">
        <ele>192.8817138671875</ele>
        <time>2007-05-27T08:12:33Z</time>
      </trkpt>
      <trkpt lat="45.597317218780518" lon="8.998038768768311">
        <ele>192.8817138671875</ele>
        <time>2007-05-27T08:12:38Z</time>
      </trkpt>
      <trkpt lat="45.597081184387207" lon="8.997716903686523">
        <ele>193.843017578125</ele>
        <time>2007-05-27T08:12:45Z</time>
      </trkpt>
      <trkpt lat="45.597102642059326" lon="8.99756669998169">
        <ele>194.32373046875</ele>
        <time>2007-05-27T08:12:48Z</time>
      </trkpt>
      <trkpt lat="45.597188472747803" lon="8.997437953948975">
        <ele>193.3623046875</ele>
        <time>2007-05-27T08:12:51Z</time>
      </trkpt>
      <trkpt lat="45.597403049468994" lon="8.997244834899902">
        <ele>190.958984375</ele>
        <time>2007-05-27T08:12:58Z</time>
      </trkpt>
      <trkpt lat="45.597596168518066" lon="8.996965885162354">
        <ele>190.4783935546875</ele>
        <time>2007-05-27T08:13:05Z</time>
      </trkpt>
      <trkpt lat="45.597596168518066" lon="8.99681568145752">
        <ele>191.4395751953125</ele>
        <time>2007-05-27T08:13:09Z</time>
      </trkpt>
      <trkpt lat="45.597403049468994" lon="8.996493816375732">
        <ele>191.4395751953125</ele>
        <time>2007-05-27T08:13:19Z</time>
      </trkpt>
      <trkpt lat="45.597231388092041" lon="8.996150493621826">
        <ele>191.9202880859375</ele>
        <time>2007-05-27T08:13:28Z</time>
      </trkpt>
      <trkpt lat="45.59701681137085" lon="8.995935916900635">
        <ele>194.32373046875</ele>
        <time>2007-05-27T08:13:38Z</time>
      </trkpt>
      <trkpt lat="45.596866607666016" lon="8.995635509490967">
        <ele>194.32373046875</ele>
        <time>2007-05-27T08:13:50Z</time>
      </trkpt>
      <trkpt lat="45.596737861633301" lon="8.995356559753418">
        <ele>194.32373046875</ele>
        <time>2007-05-27T08:14:00Z</time>
      </trkpt>
      <trkpt lat="45.596652030944824" lon="8.995120525360107">
        <ele>194.32373046875</ele>
        <time>2007-05-27T08:14:07Z</time>
      </trkpt>
      <trkpt lat="45.596694946289063" lon="8.994991779327393">
        <ele>194.8043212890625</ele>
        <time>2007-05-27T08:14:12Z</time>
      </trkpt>
      <trkpt lat="45.596716403961182" lon="8.994970321655273">
        <ele>194.8043212890625</ele>
        <time>2007-05-27T08:14:13Z</time>
      </trkpt>
      <trkpt lat="45.59699535369873" lon="8.994691371917725">
        <ele>195.284912109375</ele>
        <time>2007-05-27T08:14:25Z</time>
      </trkpt>
      <trkpt lat="45.597188472747803" lon="8.994498252868652">
        <ele>195.284912109375</ele>
        <time>2007-05-27T08:14:32Z</time>
      </trkpt>
      <trkpt lat="45.597231388092041" lon="8.994433879852295">
        <ele>195.284912109375</ele>
        <time>2007-05-27T08:14:37Z</time>
      </trkpt>
      <trkpt lat="45.597338676452637" lon="8.99430513381958">
        <ele>195.765625</ele>
        <time>2007-05-27T08:14:42Z</time>
      </trkpt>
      <trkpt lat="45.597639083862305" lon="8.994004726409912">
        <ele>195.765625</ele>
        <time>2007-05-27T08:14:52Z</time>
      </trkpt>
      <trkpt lat="45.597939491271973" lon="8.993725776672363">
        <ele>196.7269287109375</ele>
        <time>2007-05-27T08:15:01Z</time>
      </trkpt>
      <trkpt lat="45.598282814025879" lon="8.993403911590576">
        <ele>198.1689453125</ele>
        <time>2007-05-27T08:15:10Z</time>
      </trkpt>
      <trkpt lat="45.598347187042236" lon="8.9933180809021">
        <ele>198.1689453125</ele>
        <time>2007-05-27T08:15:12Z</time>
      </trkpt>
      <trkpt lat="45.598304271697998" lon="8.993103504180908">
        <ele>197.688232421875</ele>
        <time>2007-05-27T08:15:16Z</time>
      </trkpt>
      <trkpt lat="45.598046779632568" lon="8.992609977722168">
        <ele>198.1689453125</ele>
        <time>2007-05-27T08:15:24Z</time>
      </trkpt>
      <trkpt lat="45.597875118255615" lon="8.9923095703125">
        <ele>199.130126953125</ele>
        <time>2007-05-27T08:15:29Z</time>
      </trkpt>
      <trkpt lat="45.5977463722229" lon="8.991880416870117">
        <ele>198.6495361328125</ele>
        <time>2007-05-27T08:15:35Z</time>
      </trkpt>
      <trkpt lat="45.597403049468994" lon="8.991193771362305">
        <ele>197.20751953125</ele>
        <time>2007-05-27T08:15:46Z</time>
      </trkpt>
      <trkpt lat="45.597059726715088" lon="8.990528583526611">
        <ele>197.688232421875</ele>
        <time>2007-05-27T08:15:57Z</time>
      </trkpt>
      <trkpt lat="45.596930980682373" lon="8.990271091461182">
        <ele>197.20751953125</ele>
        <time>2007-05-27T08:16:01Z</time>
      </trkpt>
      <trkpt lat="45.596823692321777" lon="8.989992141723633">
        <ele>197.20751953125</ele>
        <time>2007-05-27T08:16:05Z</time>
      </trkpt>
      <trkpt lat="45.596737861633301" lon="8.989799022674561">
        <ele>197.688232421875</ele>
        <time>2007-05-27T08:16:08Z</time>
      </trkpt>
      <trkpt lat="45.59675931930542" lon="8.98956298828125">
        <ele>197.688232421875</ele>
        <time>2007-05-27T08:16:12Z</time>
      </trkpt>
      <trkpt lat="45.596780776977539" lon="8.989520072937012">
        <ele>197.688232421875</ele>
        <time>2007-05-27T08:16:13Z</time>
      </trkpt>
      <trkpt lat="45.596823692321777" lon="8.989262580871582">
        <ele>197.688232421875</ele>
        <time>2007-05-27T08:16:18Z</time>
      </trkpt>
      <trkpt lat="45.596780776977539" lon="8.989219665527344">
        <ele>197.688232421875</ele>
        <time>2007-05-27T08:16:19Z</time>
      </trkpt>
      <trkpt lat="45.596415996551514" lon="8.988833427429199">
        <ele>197.20751953125</ele>
        <time>2007-05-27T08:16:26Z</time>
      </trkpt>
      <trkpt lat="45.596308708190918" lon="8.988726139068604">
        <ele>197.20751953125</ele>
        <time>2007-05-27T08:16:28Z</time>
      </trkpt>
      <trkpt lat="45.596179962158203" lon="8.988490104675293">
        <ele>197.688232421875</ele>
        <time>2007-05-27T08:16:31Z</time>
      </trkpt>
      <trkpt lat="45.596308708190918" lon="8.988232612609863">
        <ele>197.688232421875</ele>
        <time>2007-05-27T08:16:35Z</time>
      </trkpt>
      <trkpt lat="45.596437454223633" lon="8.98806095123291">
        <ele>197.688232421875</ele>
        <time>2007-05-27T08:16:38Z</time>
      </trkpt>
      <trkpt lat="45.596888065338135" lon="8.987631797790527">
        <ele>197.688232421875</ele>
        <time>2007-05-27T08:16:47Z</time>
      </trkpt>
      <trkpt lat="45.597231388092041" lon="8.98730993270874">
        <ele>197.688232421875</ele>
        <time>2007-05-27T08:16:54Z</time>
      </trkpt>
      <trkpt lat="45.597445964813232" lon="8.98730993270874">
        <ele>198.1689453125</ele>
        <time>2007-05-27T08:16:59Z</time>
      </trkpt>
      <trkpt lat="45.597531795501709" lon="8.987438678741455">
        <ele>198.6495361328125</ele>
        <time>2007-05-27T08:17:01Z</time>
      </trkpt>
      <trkpt lat="45.597939491271973" lon="8.988103866577148">
        <ele>198.6495361328125</ele>
        <time>2007-05-27T08:17:11Z</time>
      </trkpt>
      <trkpt lat="45.598475933074951" lon="8.988940715789795">
        <ele>197.688232421875</ele>
        <time>2007-05-27T08:17:22Z</time>
      </trkpt>
      <trkpt lat="45.598948001861572" lon="8.989691734313965">
        <ele>197.688232421875</ele>
        <time>2007-05-27T08:17:33Z</time>
      </trkpt>
      <trkpt lat="45.59901237487793" lon="8.98982048034668">
        <ele>197.688232421875</ele>
        <time>2007-05-27T08:17:35Z</time>
      </trkpt>
      <trkpt lat="45.599184036254883" lon="8.989863395690918">
        <ele>197.688232421875</ele>
        <time>2007-05-27T08:17:40Z</time>
      </trkpt>
      <trkpt lat="45.599226951599121" lon="8.989841938018799">
        <ele>197.688232421875</ele>
        <time>2007-05-27T08:17:41Z</time>
      </trkpt>
      <trkpt lat="45.599527359008789" lon="8.989477157592773">
        <ele>197.688232421875</ele>
        <time>2007-05-27T08:17:51Z</time>
      </trkpt>
      <trkpt lat="45.599870681762695" lon="8.98906946182251">
        <ele>198.6495361328125</ele>
        <time>2007-05-27T08:18:02Z</time>
      </trkpt>
      <trkpt lat="45.599892139434814" lon="8.989048004150391">
        <ele>198.6495361328125</ele>
        <time>2007-05-27T08:18:03Z</time>
      </trkpt>
      <trkpt lat="45.600020885467529" lon="8.989176750183106">
        <ele>198.6495361328125</ele>
        <time>2007-05-27T08:18:08Z</time>
      </trkpt>
      <trkpt lat="45.60025691986084" lon="8.98956298828125">
        <ele>197.688232421875</ele>
        <time>2007-05-27T08:18:17Z</time>
      </trkpt>
      <trkpt lat="45.60051441192627" lon="8.99005651473999">
        <ele>196.246337890625</ele>
        <time>2007-05-27T08:18:28Z</time>
      </trkpt>
      <trkpt lat="45.600814819335938" lon="8.990592956542969">
        <ele>196.7269287109375</ele>
        <time>2007-05-27T08:18:40Z</time>
      </trkpt>
      <trkpt lat="45.601093769073486" lon="8.991107940673828">
        <ele>196.246337890625</ele>
        <time>2007-05-27T08:18:51Z</time>
      </trkpt>
      <trkpt lat="45.601286888122559" lon="8.991408348083496">
        <ele>197.20751953125</ele>
        <time>2007-05-27T08:18:58Z</time>
      </trkpt>
      <trkpt lat="45.601544380187988" lon="8.991150856018066">
        <ele>197.688232421875</ele>
        <time>2007-05-27T08:19:05Z</time>
      </trkpt>
      <trkpt lat="45.602016448974609" lon="8.990678787231445">
        <ele>197.688232421875</ele>
        <time>2007-05-27T08:19:15Z</time>
      </trkpt>
      <trkpt lat="45.602445602416992" lon="8.990228176116943">
        <ele>198.1689453125</ele>
        <time>2007-05-27T08:19:26Z</time>
      </trkpt>
      <trkpt lat="45.602595806121826" lon="8.99005651473999">
        <ele>198.6495361328125</ele>
        <time>2007-05-27T08:19:31Z</time>
      </trkpt>
      <trkpt lat="45.602574348449707" lon="8.989970684051514">
        <ele>199.130126953125</ele>
        <time>2007-05-27T08:19:35Z</time>
      </trkpt>
      <trkpt lat="45.602467060089111" lon="8.98982048034668">
        <ele>198.1689453125</ele>
        <time>2007-05-27T08:19:45Z</time>
      </trkpt>
      <trkpt lat="45.602445602416992" lon="8.989799022674561">
        <ele>198.1689453125</ele>
        <time>2007-05-27T08:19:46Z</time>
      </trkpt>
      <trkpt lat="45.602381229400635" lon="8.989777565002441">
        <ele>200.572265625</ele>
        <time>2007-05-27T08:19:55Z</time>
      </trkpt>
      <trkpt lat="45.602316856384277" lon="8.989734649658203">
        <ele>201.0528564453125</ele>
        <time>2007-05-27T08:20:02Z</time>
      </trkpt>
      <trkpt lat="45.602273941040039" lon="8.989713191986084">
        <ele>201.5335693359375</ele>
        <time>2007-05-27T08:20:12Z</time>
      </trkpt>
      <trkpt lat="45.602273941040039" lon="8.989670276641846">
        <ele>202.0142822265625</ele>
        <time>2007-05-27T08:20:15Z</time>
      </trkpt>
      <trkpt lat="45.602295398712158" lon="8.98956298828125">
        <ele>201.5335693359375</ele>
        <time>2007-05-27T08:20:23Z</time>
      </trkpt>
      <trkpt lat="45.602316856384277" lon="8.989541530609131">
        <ele>201.5335693359375</ele>
        <time>2007-05-27T08:20:25Z</time>
      </trkpt>
      <trkpt lat="45.602316856384277" lon="8.989434242248535">
        <ele>202.9754638671875</ele>
        <time>2007-05-27T08:20:34Z</time>
      </trkpt>
      <trkpt lat="45.602316856384277" lon="8.989369869232178">
        <ele>203.4561767578125</ele>
        <time>2007-05-27T08:20:39Z</time>
      </trkpt>
      <trkpt lat="45.602424144744873" lon="8.989241123199463">
        <ele>202.9754638671875</ele>
        <time>2007-05-27T08:20:51Z</time>
      </trkpt>
      <trkpt lat="45.602402687072754" lon="8.989155292510986">
        <ele>205.8594970703125</ele>
        <time>2007-05-27T08:21:02Z</time>
      </trkpt>
      <trkpt lat="45.602402687072754" lon="8.989133834838867">
        <ele>205.3787841796875</ele>
        <time>2007-05-27T08:21:08Z</time>
      </trkpt>
      <trkpt lat="45.602381229400635" lon="8.989112377166748">
        <ele>204.8980712890625</ele>
        <time>2007-05-27T08:21:27Z</time>
      </trkpt>
      <trkpt lat="45.602424144744873" lon="8.989026546478272">
        <ele>202.494873046875</ele>
        <time>2007-05-27T08:21:35Z</time>
      </trkpt>
      <trkpt lat="45.602424144744873" lon="8.989112377166748">
        <ele>202.494873046875</ele>
        <time>2007-05-27T08:21:40Z</time>
      </trkpt>
      <trkpt lat="45.60248851776123" lon="8.989369869232178">
        <ele>202.0142822265625</ele>
        <time>2007-05-27T08:21:50Z</time>
      </trkpt>
      <trkpt lat="45.602467060089111" lon="8.989541530609131">
        <ele>203.9368896484375</ele>
        <time>2007-05-27T08:21:58Z</time>
      </trkpt>
      <trkpt lat="45.602467060089111" lon="8.989670276641846">
        <ele>203.9368896484375</ele>
        <time>2007-05-27T08:22:09Z</time>
      </trkpt>
      <trkpt lat="45.602531433105469" lon="8.989799022674561">
        <ele>203.4561767578125</ele>
        <time>2007-05-27T08:22:18Z</time>
      </trkpt>
      <trkpt lat="45.602574348449707" lon="8.98982048034668">
        <ele>203.4561767578125</ele>
        <time>2007-05-27T08:22:22Z</time>
      </trkpt>
      <trkpt lat="45.602595806121826" lon="8.989713191986084">
        <ele>203.4561767578125</ele>
        <time>2007-05-27T08:22:31Z</time>
      </trkpt>
      <trkpt lat="45.602574348449707" lon="8.989670276641846">
        <ele>202.9754638671875</ele>
        <time>2007-05-27T08:22:40Z</time>
      </trkpt>
      <trkpt lat="45.602574348449707" lon="8.98956298828125">
        <ele>201.0528564453125</ele>
        <time>2007-05-27T08:23:01Z</time>
      </trkpt>
      <trkpt lat="45.602595806121826" lon="8.98956298828125">
        <ele>201.0528564453125</ele>
        <time>2007-05-27T08:23:02Z</time>
      </trkpt>
      <trkpt lat="45.602617263793945" lon="8.989648818969727">
        <ele>199.130126953125</ele>
        <time>2007-05-27T08:23:07Z</time>
      </trkpt>
      <trkpt lat="45.602617263793945" lon="8.989670276641846">
        <ele>198.1689453125</ele>
        <time>2007-05-27T08:23:09Z</time>
      </trkpt>
      <trkpt lat="45.602681636810303" lon="8.989691734313965">
        <ele>197.20751953125</ele>
        <time>2007-05-27T08:23:12Z</time>
      </trkpt>
      <trkpt lat="45.602767467498779" lon="8.989670276641846">
        <ele>196.7269287109375</ele>
        <time>2007-05-27T08:23:16Z</time>
      </trkpt>
      <trkpt lat="45.602788925170898" lon="8.989541530609131">
        <ele>196.7269287109375</ele>
        <time>2007-05-27T08:23:20Z</time>
      </trkpt>
      <trkpt lat="45.602724552154541" lon="8.989348411560059">
        <ele>199.61083984375</ele>
        <time>2007-05-27T08:23:27Z</time>
      </trkpt>
      <trkpt lat="45.602638721466064" lon="8.989348411560059">
        <ele>200.572265625</ele>
        <time>2007-05-27T08:23:35Z</time>
      </trkpt>
      <trkpt lat="45.602531433105469" lon="8.989262580871582">
        <ele>202.0142822265625</ele>
        <time>2007-05-27T08:23:45Z</time>
      </trkpt>
      <trkpt lat="45.602531433105469" lon="8.989026546478272">
        <ele>202.0142822265625</ele>
        <time>2007-05-27T08:23:55Z</time>
      </trkpt>
      <trkpt lat="45.602402687072754" lon="8.988683223724365">
        <ele>202.494873046875</ele>
        <time>2007-05-27T08:24:02Z</time>
      </trkpt>
      <trkpt lat="45.602102279663086" lon="8.988232612609863">
        <ele>202.0142822265625</ele>
        <time>2007-05-27T08:24:10Z</time>
      </trkpt>
      <trkpt lat="45.601694583892822" lon="8.98756742477417">
        <ele>201.5335693359375</ele>
        <time>2007-05-27T08:24:21Z</time>
      </trkpt>
      <trkpt lat="45.601608753204346" lon="8.987438678741455">
        <ele>201.5335693359375</ele>
        <time>2007-05-27T08:24:23Z</time>
      </trkpt>
      <trkpt lat="45.601394176483154" lon="8.987052440643311">
        <ele>201.0528564453125</ele>
        <time>2007-05-27T08:24:29Z</time>
      </trkpt>
      <trkpt lat="45.601458549499512" lon="8.986794948577881">
        <ele>200.572265625</ele>
        <time>2007-05-27T08:24:33Z</time>
      </trkpt>
      <trkpt lat="45.60150146484375" lon="8.986752033233643">
        <ele>200.572265625</ele>
        <time>2007-05-27T08:24:34Z</time>
      </trkpt>
      <trkpt lat="45.601909160614014" lon="8.986344337463379">
        <ele>200.572265625</ele>
        <time>2007-05-27T08:24:42Z</time>
      </trkpt>
      <trkpt lat="45.602424144744873" lon="8.985764980316162">
        <ele>200.0916748046875</ele>
        <time>2007-05-27T08:24:52Z</time>
      </trkpt>
      <trkpt lat="45.602896213531494" lon="8.985271453857422">
        <ele>200.572265625</ele>
        <time>2007-05-27T08:25:02Z</time>
      </trkpt>
      <trkpt lat="45.603346824645996" lon="8.984799385070801">
        <ele>201.0528564453125</ele>
        <time>2007-05-27T08:25:12Z</time>
      </trkpt>
      <trkpt lat="45.603539943695068" lon="8.984735012054443">
        <ele>201.0528564453125</ele>
        <time>2007-05-27T08:25:16Z</time>
      </trkpt>
      <trkpt lat="45.603690147399902" lon="8.984692096710205">
        <ele>201.0528564453125</ele>
        <time>2007-05-27T08:25:19Z</time>
      </trkpt>
      <trkpt lat="45.604054927825928" lon="8.984305858612061">
        <ele>202.494873046875</ele>
        <time>2007-05-27T08:25:28Z</time>
      </trkpt>
      <trkpt lat="45.604248046875" lon="8.984091281890869">
        <ele>202.9754638671875</ele>
        <time>2007-05-27T08:25:33Z</time>
      </trkpt>
      <trkpt lat="45.604398250579834" lon="8.984091281890869">
        <ele>202.9754638671875</ele>
        <time>2007-05-27T08:25:37Z</time>
      </trkpt>
      <trkpt lat="45.604441165924072" lon="8.984220027923584">
        <ele>202.9754638671875</ele>
        <time>2007-05-27T08:25:39Z</time>
      </trkpt>
      <trkpt lat="45.604677200317383" lon="8.984906673431397">
        <ele>202.0142822265625</ele>
        <time>2007-05-27T08:25:49Z</time>
      </trkpt>
      <trkpt lat="45.604977607727051" lon="8.9858078956604">
        <ele>201.5335693359375</ele>
        <time>2007-05-27T08:26:02Z</time>
      </trkpt>
      <trkpt lat="45.605278015136719" lon="8.986687660217285">
        <ele>201.0528564453125</ele>
        <time>2007-05-27T08:26:14Z</time>
      </trkpt>
      <trkpt lat="45.605406761169434" lon="8.987052440643311">
        <ele>201.0528564453125</ele>
        <time>2007-05-27T08:26:19Z</time>
      </trkpt>
      <trkpt lat="45.605578422546387" lon="8.987116813659668">
        <ele>200.0916748046875</ele>
        <time>2007-05-27T08:26:23Z</time>
      </trkpt>
      <trkpt lat="45.605621337890625" lon="8.98707389831543">
        <ele>200.0916748046875</ele>
        <time>2007-05-27T08:26:24Z</time>
      </trkpt>
      <trkpt lat="45.606179237365723" lon="8.98655891418457">
        <ele>199.61083984375</ele>
        <time>2007-05-27T08:26:36Z</time>
      </trkpt>
      <trkpt lat="45.606522560119629" lon="8.986194133758545">
        <ele>199.61083984375</ele>
        <time>2007-05-27T08:26:44Z</time>
      </trkpt>
      <trkpt lat="45.606694221496582" lon="8.986258506774902">
        <ele>200.0916748046875</ele>
        <time>2007-05-27T08:26:48Z</time>
      </trkpt>
      <trkpt lat="45.606758594512939" lon="8.986365795135498">
        <ele>200.0916748046875</ele>
        <time>2007-05-27T08:26:50Z</time>
      </trkpt>
      <trkpt lat="45.607080459594727" lon="8.986923694610596">
        <ele>200.0916748046875</ele>
        <time>2007-05-27T08:27:00Z</time>
      </trkpt>
      <trkpt lat="45.60725212097168" lon="8.98707389831543">
        <ele>200.0916748046875</ele>
        <time>2007-05-27T08:27:04Z</time>
      </trkpt>
      <trkpt lat="45.607423782348633" lon="8.987202644348145">
        <ele>200.0916748046875</ele>
        <time>2007-05-27T08:27:08Z</time>
      </trkpt>
      <trkpt lat="45.607573986053467" lon="8.987138271331787">
        <ele>199.61083984375</ele>
        <time>2007-05-27T08:27:12Z</time>
      </trkpt>
      <trkpt lat="45.608131885528564" lon="8.98655891418457">
        <ele>201.0528564453125</ele>
        <time>2007-05-27T08:27:27Z</time>
      </trkpt>
      <trkpt lat="45.608453750610352" lon="8.986258506774902">
        <ele>202.9754638671875</ele>
        <time>2007-05-27T08:27:35Z</time>
      </trkpt>
      <trkpt lat="45.608561038970947" lon="8.986258506774902">
        <ele>202.9754638671875</ele>
        <time>2007-05-27T08:27:38Z</time>
      </trkpt>
      <trkpt lat="45.608625411987305" lon="8.986301422119141">
        <ele>202.494873046875</ele>
        <time>2007-05-27T08:27:41Z</time>
      </trkpt>
      <trkpt lat="45.608904361724854" lon="8.98606538772583">
        <ele>202.0142822265625</ele>
        <time>2007-05-27T08:27:51Z</time>
      </trkpt>
      <trkpt lat="45.609183311462402" lon="8.985786437988281">
        <ele>201.0528564453125</ele>
        <time>2007-05-27T08:28:00Z</time>
      </trkpt>
      <trkpt lat="45.609419345855713" lon="8.9858078956604">
        <ele>201.5335693359375</ele>
        <time>2007-05-27T08:28:07Z</time>
      </trkpt>
      <trkpt lat="45.609655380249023" lon="8.9858078956604">
        <ele>201.0528564453125</ele>
        <time>2007-05-27T08:28:14Z</time>
      </trkpt>
      <trkpt lat="45.609784126281738" lon="8.985743522644043">
        <ele>202.0142822265625</ele>
        <time>2007-05-27T08:28:18Z</time>
      </trkpt>
      <trkpt lat="45.6097412109375" lon="8.985636234283447">
        <ele>202.494873046875</ele>
        <time>2007-05-27T08:28:22Z</time>
      </trkpt>
      <trkpt lat="45.609397888183594" lon="8.985679149627686">
        <ele>201.0528564453125</ele>
        <time>2007-05-27T08:28:30Z</time>
      </trkpt>
      <trkpt lat="45.608646869659424" lon="8.985764980316162">
        <ele>198.1689453125</ele>
        <time>2007-05-27T08:28:45Z</time>
      </trkpt>
      <trkpt lat="45.608024597167969" lon="8.985850811004639">
        <ele>196.246337890625</ele>
        <time>2007-05-27T08:28:59Z</time>
      </trkpt>
      <trkpt lat="45.607445240020752" lon="8.985936641693115">
        <ele>197.688232421875</ele>
        <time>2007-05-27T08:29:12Z</time>
      </trkpt>
      <trkpt lat="45.606908798217773" lon="8.986043930053711">
        <ele>196.7269287109375</ele>
        <time>2007-05-27T08:29:24Z</time>
      </trkpt>
      <trkpt lat="45.606651306152344" lon="8.986086845397949">
        <ele>197.688232421875</ele>
        <time>2007-05-27T08:29:30Z</time>
      </trkpt>
      <trkpt lat="45.606651306152344" lon="8.985979557037354">
        <ele>198.1689453125</ele>
        <time>2007-05-27T08:29:35Z</time>
      </trkpt>
      <trkpt lat="45.606865882873535" lon="8.985743522644043">
        <ele>199.130126953125</ele>
        <time>2007-05-27T08:29:44Z</time>
      </trkpt>
      <trkpt lat="45.607187747955322" lon="8.985378742218018">
        <ele>199.130126953125</ele>
        <time>2007-05-27T08:29:55Z</time>
      </trkpt>
      <trkpt lat="45.607359409332275" lon="8.985207080841065">
        <ele>199.130126953125</ele>
        <time>2007-05-27T08:30:00Z</time>
      </trkpt>
      <trkpt lat="45.607295036315918" lon="8.985013961791992">
        <ele>199.130126953125</ele>
        <time>2007-05-27T08:30:04Z</time>
      </trkpt>
      <trkpt lat="45.606951713562012" lon="8.984284400939941">
        <ele>199.61083984375</ele>
        <time>2007-05-27T08:30:18Z</time>
      </trkpt>
      <trkpt lat="45.606844425201416" lon="8.983876705169678">
        <ele>199.130126953125</ele>
        <time>2007-05-27T08:30:26Z</time>
      </trkpt>
      <trkpt lat="45.606844425201416" lon="8.983790874481201">
        <ele>199.130126953125</ele>
        <time>2007-05-27T08:30:28Z</time>
      </trkpt>
      <trkpt lat="45.606951713562012" lon="8.983619213104248">
        <ele>198.1689453125</ele>
        <time>2007-05-27T08:30:32Z</time>
      </trkpt>
      <trkpt lat="45.607423782348633" lon="8.983104228973389">
        <ele>199.130126953125</ele>
        <time>2007-05-27T08:30:45Z</time>
      </trkpt>
      <trkpt lat="45.60774564743042" lon="8.982696533203125">
        <ele>202.0142822265625</ele>
        <time>2007-05-27T08:30:56Z</time>
      </trkpt>
      <trkpt lat="45.608153343200684" lon="8.9823317527771">
        <ele>202.9754638671875</ele>
        <time>2007-05-27T08:31:08Z</time>
      </trkpt>
      <trkpt lat="45.608282089233398" lon="8.982245922088623">
        <ele>203.4561767578125</ele>
        <time>2007-05-27T08:31:11Z</time>
      </trkpt>
      <trkpt lat="45.608453750610352" lon="8.982417583465576">
        <ele>202.494873046875</ele>
        <time>2007-05-27T08:31:18Z</time>
      </trkpt>
      <trkpt lat="45.608668327331543" lon="8.982782363891602">
        <ele>202.0142822265625</ele>
        <time>2007-05-27T08:31:26Z</time>
      </trkpt>
      <trkpt lat="45.608947277069092" lon="8.983297348022461">
        <ele>201.0528564453125</ele>
        <time>2007-05-27T08:31:37Z</time>
      </trkpt>
      <trkpt lat="45.609161853790283" lon="8.983125686645508">
        <ele>200.572265625</ele>
        <time>2007-05-27T08:31:44Z</time>
      </trkpt>
      <trkpt lat="45.609419345855713" lon="8.982932567596436">
        <ele>201.5335693359375</ele>
        <time>2007-05-27T08:31:50Z</time>
      </trkpt>
      <trkpt lat="45.609548091888428" lon="8.983039855957031">
        <ele>201.5335693359375</ele>
        <time>2007-05-27T08:31:54Z</time>
      </trkpt>
      <trkpt lat="45.609612464904785" lon="8.983125686645508">
        <ele>201.5335693359375</ele>
        <time>2007-05-27T08:31:56Z</time>
      </trkpt>
      <trkpt lat="45.609912872314453" lon="8.983597755432129">
        <ele>200.572265625</ele>
        <time>2007-05-27T08:32:07Z</time>
      </trkpt>
      <trkpt lat="45.610084533691406" lon="8.983855247497559">
        <ele>200.0916748046875</ele>
        <time>2007-05-27T08:32:15Z</time>
      </trkpt>
      <trkpt lat="45.610191822052002" lon="8.983919620513916">
        <ele>200.0916748046875</ele>
        <time>2007-05-27T08:32:19Z</time>
      </trkpt>
      <trkpt lat="45.610277652740479" lon="8.983941078186035">
        <ele>201.0528564453125</ele>
        <time>2007-05-27T08:32:21Z</time>
      </trkpt>
      <trkpt lat="45.610384941101074" lon="8.983941078186035">
        <ele>201.5335693359375</ele>
        <time>2007-05-27T08:32:23Z</time>
      </trkpt>
      <trkpt lat="45.611007213592529" lon="8.984134197235107">
        <ele>202.0142822265625</ele>
        <time>2007-05-27T08:32:35Z</time>
      </trkpt>
      <trkpt lat="45.611200332641602" lon="8.984155654907227">
        <ele>202.0142822265625</ele>
        <time>2007-05-27T08:32:39Z</time>
      </trkpt>
      <trkpt lat="45.611307621002197" lon="8.984220027923584">
        <ele>202.494873046875</ele>
        <time>2007-05-27T08:32:42Z</time>
      </trkpt>
      <trkpt lat="45.611436367034912" lon="8.984262943267822">
        <ele>202.9754638671875</ele>
        <time>2007-05-27T08:32:45Z</time>
      </trkpt>
      <trkpt lat="45.611865520477295" lon="8.984262943267822">
        <ele>203.9368896484375</ele>
        <time>2007-05-27T08:32:55Z</time>
      </trkpt>
      <trkpt lat="45.612187385559082" lon="8.984284400939941">
        <ele>204.8980712890625</ele>
        <time>2007-05-27T08:33:03Z</time>
      </trkpt>
      <trkpt lat="45.61223030090332" lon="8.984112739562988">
        <ele>204.8980712890625</ele>
        <time>2007-05-27T08:33:07Z</time>
      </trkpt>
      <trkpt lat="45.612165927886963" lon="8.983340263366699">
        <ele>205.3787841796875</ele>
        <time>2007-05-27T08:33:17Z</time>
      </trkpt>
      <trkpt lat="45.612080097198486" lon="8.982481956481934">
        <ele>205.3787841796875</ele>
        <time>2007-05-27T08:33:27Z</time>
      </trkpt>
      <trkpt lat="45.61199426651001" lon="8.981666564941406">
        <ele>206.340087890625</ele>
        <time>2007-05-27T08:33:37Z</time>
      </trkpt>
      <trkpt lat="45.611715316772461" lon="8.98106575012207">
        <ele>206.8206787109375</ele>
        <time>2007-05-27T08:33:47Z</time>
      </trkpt>
      <trkpt lat="45.611586570739746" lon="8.980872631072998">
        <ele>207.3013916015625</ele>
        <time>2007-05-27T08:33:51Z</time>
      </trkpt>
      <trkpt lat="45.61124324798584" lon="8.980228900909424">
        <ele>207.7821044921875</ele>
        <time>2007-05-27T08:34:03Z</time>
      </trkpt>
      <trkpt lat="45.610857009887695" lon="8.979477882385254">
        <ele>208.2628173828125</ele>
        <time>2007-05-27T08:34:16Z</time>
      </trkpt>
      <trkpt lat="45.610535144805908" lon="8.978877067565918">
        <ele>209.22412109375</ele>
        <time>2007-05-27T08:34:27Z</time>
      </trkpt>
      <trkpt lat="45.610363483428955" lon="8.97857666015625">
        <ele>209.22412109375</ele>
        <time>2007-05-27T08:34:33Z</time>
      </trkpt>
      <trkpt lat="45.610148906707764" lon="8.978512287139893">
        <ele>209.22412109375</ele>
        <time>2007-05-27T08:34:38Z</time>
      </trkpt>
      <trkpt lat="45.610105991363525" lon="8.978555202484131">
        <ele>209.704833984375</ele>
        <time>2007-05-27T08:34:39Z</time>
      </trkpt>
      <trkpt lat="45.609848499298096" lon="8.978791236877441">
        <ele>210.1854248046875</ele>
        <time>2007-05-27T08:34:47Z</time>
      </trkpt>
      <trkpt lat="45.609633922576904" lon="8.978962898254395">
        <ele>208.743408203125</ele>
        <time>2007-05-27T08:34:56Z</time>
      </trkpt>
      <trkpt lat="45.609612464904785" lon="8.978984355926514">
        <ele>208.2628173828125</ele>
        <time>2007-05-27T08:34:57Z</time>
      </trkpt>
      <trkpt lat="45.609526634216309" lon="8.978941440582275">
        <ele>207.7821044921875</ele>
        <time>2007-05-27T08:35:01Z</time>
      </trkpt>
      <trkpt lat="45.609462261199951" lon="8.979005813598633">
        <ele>207.3013916015625</ele>
        <time>2007-05-27T08:35:05Z</time>
      </trkpt>
      <trkpt lat="45.609376430511475" lon="8.97907018661499">
        <ele>206.340087890625</ele>
        <time>2007-05-27T08:35:08Z</time>
      </trkpt>
      <trkpt lat="45.609161853790283" lon="8.979241847991943">
        <ele>205.8594970703125</ele>
        <time>2007-05-27T08:35:16Z</time>
      </trkpt>
      <trkpt lat="45.60899019241333" lon="8.979392051696777">
        <ele>206.8206787109375</ele>
        <time>2007-05-27T08:35:25Z</time>
      </trkpt>
      <trkpt lat="45.609011650085449" lon="8.979542255401611">
        <ele>205.8594970703125</ele>
        <time>2007-05-27T08:35:32Z</time>
      </trkpt>
      <trkpt lat="45.609204769134521" lon="8.979842662811279">
        <ele>205.8594970703125</ele>
        <time>2007-05-27T08:35:42Z</time>
      </trkpt>
      <trkpt lat="45.609440803527832" lon="8.980271816253662">
        <ele>206.340087890625</ele>
        <time>2007-05-27T08:35:51Z</time>
      </trkpt>
      <trkpt lat="45.609612464904785" lon="8.980593681335449">
        <ele>206.8206787109375</ele>
        <time>2007-05-27T08:35:58Z</time>
      </trkpt>
      <trkpt lat="45.609505176544189" lon="8.980958461761475">
        <ele>206.8206787109375</ele>
        <time>2007-05-27T08:36:05Z</time>
      </trkpt>
      <trkpt lat="45.609462261199951" lon="8.981044292449951">
        <ele>207.3013916015625</ele>
        <time>2007-05-27T08:36:07Z</time>
      </trkpt>
      <trkpt lat="45.609354972839355" lon="8.981001377105713">
        <ele>207.3013916015625</ele>
        <time>2007-05-27T08:36:11Z</time>
      </trkpt>
      <trkpt lat="45.609312057495117" lon="8.980894088745117">
        <ele>206.8206787109375</ele>
        <time>2007-05-27T08:36:13Z</time>
      </trkpt>
      <trkpt lat="45.608968734741211" lon="8.980293273925781">
        <ele>206.8206787109375</ele>
        <time>2007-05-27T08:36:25Z</time>
      </trkpt>
      <trkpt lat="45.608925819396973" lon="8.980228900909424">
        <ele>206.8206787109375</ele>
        <time>2007-05-27T08:36:27Z</time>
      </trkpt>
      <trkpt lat="45.608775615692139" lon="8.980271816253662">
        <ele>206.8206787109375</ele>
        <time>2007-05-27T08:36:31Z</time>
      </trkpt>
      <trkpt lat="45.608367919921875" lon="8.98082971572876">
        <ele>206.8206787109375</ele>
        <time>2007-05-27T08:36:44Z</time>
      </trkpt>
      <trkpt lat="45.608325004577637" lon="8.980937004089356">
        <ele>206.8206787109375</ele>
        <time>2007-05-27T08:36:46Z</time>
      </trkpt>
      <trkpt lat="45.60823917388916" lon="8.980979919433594">
        <ele>206.340087890625</ele>
        <time>2007-05-27T08:36:49Z</time>
      </trkpt>
      <trkpt lat="45.608046054840088" lon="8.981173038482666">
        <ele>206.8206787109375</ele>
        <time>2007-05-27T08:36:54Z</time>
      </trkpt>
      <trkpt lat="45.607938766479492" lon="8.981301784515381">
        <ele>206.340087890625</ele>
        <time>2007-05-27T08:36:57Z</time>
      </trkpt>
      <trkpt lat="45.607702732086182" lon="8.981473445892334">
        <ele>207.7821044921875</ele>
        <time>2007-05-27T08:37:04Z</time>
      </trkpt>
      <trkpt lat="45.607509613037109" lon="8.981451988220215">
        <ele>208.2628173828125</ele>
        <time>2007-05-27T08:37:09Z</time>
      </trkpt>
      <trkpt lat="45.607402324676514" lon="8.981280326843262">
        <ele>208.743408203125</ele>
        <time>2007-05-27T08:37:14Z</time>
      </trkpt>
      <trkpt lat="45.607359409332275" lon="8.981280326843262">
        <ele>209.22412109375</ele>
        <time>2007-05-27T08:37:15Z</time>
      </trkpt>
      <trkpt lat="45.607037544250488" lon="8.981473445892334">
        <ele>209.22412109375</ele>
        <time>2007-05-27T08:37:23Z</time>
      </trkpt>
      <trkpt lat="45.606522560119629" lon="8.981688022613525">
        <ele>206.340087890625</ele>
        <time>2007-05-27T08:37:34Z</time>
      </trkpt>
      <trkpt lat="45.606114864349365" lon="8.981859683990479">
        <ele>207.3013916015625</ele>
        <time>2007-05-27T08:37:43Z</time>
      </trkpt>
      <trkpt lat="45.605664253234863" lon="8.982310295104981">
        <ele>206.340087890625</ele>
        <time>2007-05-27T08:37:54Z</time>
      </trkpt>
      <trkpt lat="45.605213642120361" lon="8.982696533203125">
        <ele>205.3787841796875</ele>
        <time>2007-05-27T08:38:03Z</time>
      </trkpt>
      <trkpt lat="45.604612827301025" lon="8.983275890350342">
        <ele>205.3787841796875</ele>
        <time>2007-05-27T08:38:15Z</time>
      </trkpt>
      <trkpt lat="45.604269504547119" lon="8.98357629776001">
        <ele>205.3787841796875</ele>
        <time>2007-05-27T08:38:22Z</time>
      </trkpt>
      <trkpt lat="45.604119300842285" lon="8.983469009399414">
        <ele>205.3787841796875</ele>
        <time>2007-05-27T08:38:26Z</time>
      </trkpt>
      <trkpt lat="45.604097843170166" lon="8.983404636383057">
        <ele>205.3787841796875</ele>
        <time>2007-05-27T08:38:27Z</time>
      </trkpt>
      <trkpt lat="45.603947639465332" lon="8.98308277130127">
        <ele>205.3787841796875</ele>
        <time>2007-05-27T08:38:32Z</time>
      </trkpt>
      <trkpt lat="45.60375452041626" lon="8.98256778717041">
        <ele>205.8594970703125</ele>
        <time>2007-05-27T08:38:39Z</time>
      </trkpt>
      <trkpt lat="45.603539943695068" lon="8.982009887695313">
        <ele>205.8594970703125</ele>
        <time>2007-05-27T08:38:47Z</time>
      </trkpt>
      <trkpt lat="45.603475570678711" lon="8.981859683990479">
        <ele>205.3787841796875</ele>
        <time>2007-05-27T08:38:49Z</time>
      </trkpt>
      <trkpt lat="45.603432655334473" lon="8.981688022613525">
        <ele>205.3787841796875</ele>
        <time>2007-05-27T08:38:51Z</time>
      </trkpt>
      <trkpt lat="45.603454113006592" lon="8.981430530548096">
        <ele>205.3787841796875</ele>
        <time>2007-05-27T08:38:56Z</time>
      </trkpt>
      <trkpt lat="45.603518486022949" lon="8.981301784515381">
        <ele>204.8980712890625</ele>
        <time>2007-05-27T08:38:58Z</time>
      </trkpt>
      <trkpt lat="45.604054927825928" lon="8.980615139007568">
        <ele>203.9368896484375</ele>
        <time>2007-05-27T08:39:11Z</time>
      </trkpt>
      <trkpt lat="45.604333877563477" lon="8.980100154876709">
        <ele>202.494873046875</ele>
        <time>2007-05-27T08:39:20Z</time>
      </trkpt>
      <trkpt lat="45.604634284973145" lon="8.979649543762207">
        <ele>203.9368896484375</ele>
        <time>2007-05-27T08:39:30Z</time>
      </trkpt>
      <trkpt lat="45.604870319366455" lon="8.979520797729492">
        <ele>203.9368896484375</ele>
        <time>2007-05-27T08:39:37Z</time>
      </trkpt>
      <trkpt lat="45.605149269104004" lon="8.979434967041016">
        <ele>204.41748046875</ele>
        <time>2007-05-27T08:39:44Z</time>
      </trkpt>
      <trkpt lat="45.60549259185791" lon="8.979027271270752">
        <ele>203.9368896484375</ele>
        <time>2007-05-27T08:39:55Z</time>
      </trkpt>
      <trkpt lat="45.605535507202148" lon="8.979005813598633">
        <ele>203.9368896484375</ele>
        <time>2007-05-27T08:39:56Z</time>
      </trkpt>
      <trkpt lat="45.605664253234863" lon="8.979027271270752">
        <ele>204.41748046875</ele>
        <time>2007-05-27T08:40:00Z</time>
      </trkpt>
      <trkpt lat="45.606050491333008" lon="8.979563713073731">
        <ele>203.4561767578125</ele>
        <time>2007-05-27T08:40:12Z</time>
      </trkpt>
      <trkpt lat="45.606329441070557" lon="8.980143070220947">
        <ele>203.9368896484375</ele>
        <time>2007-05-27T08:40:24Z</time>
      </trkpt>
      <trkpt lat="45.606586933135986" lon="8.980507850646973">
        <ele>206.340087890625</ele>
        <time>2007-05-27T08:40:34Z</time>
      </trkpt>
      <trkpt lat="45.606801509857178" lon="8.980507850646973">
        <ele>205.3787841796875</ele>
        <time>2007-05-27T08:40:43Z</time>
      </trkpt>
      <trkpt lat="45.607016086578369" lon="8.9803147315979">
        <ele>204.8980712890625</ele>
        <time>2007-05-27T08:40:52Z</time>
      </trkpt>
      <trkpt lat="45.607059001922607" lon="8.980271816253662">
        <ele>204.8980712890625</ele>
        <time>2007-05-27T08:40:56Z</time>
      </trkpt>
      <trkpt lat="45.607080459594727" lon="8.980250358581543">
        <ele>205.3787841796875</ele>
        <time>2007-05-27T08:40:57Z</time>
      </trkpt>
      <trkpt lat="45.607230663299561" lon="8.980057239532471">
        <ele>204.41748046875</ele>
        <time>2007-05-27T08:41:03Z</time>
      </trkpt>
      <trkpt lat="45.607445240020752" lon="8.979949951171875">
        <ele>204.41748046875</ele>
        <time>2007-05-27T08:41:09Z</time>
      </trkpt>
      <trkpt lat="45.607681274414063" lon="8.979885578155518">
        <ele>203.9368896484375</ele>
        <time>2007-05-27T08:41:16Z</time>
      </trkpt>
      <trkpt lat="45.60798168182373" lon="8.979735374450684">
        <ele>203.4561767578125</ele>
        <time>2007-05-27T08:41:26Z</time>
      </trkpt>
      <trkpt lat="45.608174800872803" lon="8.97958517074585">
        <ele>203.4561767578125</ele>
        <time>2007-05-27T08:41:33Z</time>
      </trkpt>
      <trkpt lat="45.608282089233398" lon="8.979499340057373">
        <ele>204.41748046875</ele>
        <time>2007-05-27T08:41:36Z</time>
      </trkpt>
      <trkpt lat="45.608282089233398" lon="8.979306221008301">
        <ele>204.41748046875</ele>
        <time>2007-05-27T08:41:41Z</time>
      </trkpt>
      <trkpt lat="45.608024597167969" lon="8.978855609893799">
        <ele>204.41748046875</ele>
        <time>2007-05-27T08:41:50Z</time>
      </trkpt>
      <trkpt lat="45.607659816741943" lon="8.978126049041748">
        <ele>204.8980712890625</ele>
        <time>2007-05-27T08:42:03Z</time>
      </trkpt>
      <trkpt lat="45.607531070709229" lon="8.977890014648438">
        <ele>204.8980712890625</ele>
        <time>2007-05-27T08:42:07Z</time>
      </trkpt>
      <trkpt lat="45.607402324676514" lon="8.977718353271484">
        <ele>204.8980712890625</ele>
        <time>2007-05-27T08:42:11Z</time>
      </trkpt>
      <trkpt lat="45.607423782348633" lon="8.977482318878174">
        <ele>204.8980712890625</ele>
        <time>2007-05-27T08:42:16Z</time>
      </trkpt>
      <trkpt lat="45.607423782348633" lon="8.977310657501221">
        <ele>204.8980712890625</ele>
        <time>2007-05-27T08:42:19Z</time>
      </trkpt>
      <trkpt lat="45.607402324676514" lon="8.977117538452148">
        <ele>204.8980712890625</ele>
        <time>2007-05-27T08:42:22Z</time>
      </trkpt>
      <trkpt lat="45.607552528381348" lon="8.976902961730957">
        <ele>205.8594970703125</ele>
        <time>2007-05-27T08:42:28Z</time>
      </trkpt>
      <trkpt lat="45.607852935791016" lon="8.976559638977051">
        <ele>205.8594970703125</ele>
        <time>2007-05-27T08:42:37Z</time>
      </trkpt>
      <trkpt lat="45.607938766479492" lon="8.976452350616455">
        <ele>206.340087890625</ele>
        <time>2007-05-27T08:42:40Z</time>
      </trkpt>
      <trkpt lat="45.608046054840088" lon="8.976452350616455">
        <ele>205.8594970703125</ele>
        <time>2007-05-27T08:42:43Z</time>
      </trkpt>
      <trkpt lat="45.608217716217041" lon="8.976387977600098">
        <ele>204.41748046875</ele>
        <time>2007-05-27T08:42:48Z</time>
      </trkpt>
      <trkpt lat="45.608260631561279" lon="8.97632360458374">
        <ele>203.9368896484375</ele>
        <time>2007-05-27T08:42:50Z</time>
      </trkpt>
      <trkpt lat="45.608453750610352" lon="8.975937366485596">
        <ele>203.9368896484375</ele>
        <time>2007-05-27T08:42:58Z</time>
      </trkpt>
      <trkpt lat="45.608646869659424" lon="8.975808620452881">
        <ele>204.41748046875</ele>
        <time>2007-05-27T08:43:04Z</time>
      </trkpt>
      <trkpt lat="45.608861446380615" lon="8.975830078125">
        <ele>203.4561767578125</ele>
        <time>2007-05-27T08:43:12Z</time>
      </trkpt>
      <trkpt lat="45.609076023101807" lon="8.976151943206787">
        <ele>202.9754638671875</ele>
        <time>2007-05-27T08:43:19Z</time>
      </trkpt>
      <trkpt lat="45.609440803527832" lon="8.976795673370361">
        <ele>203.4561767578125</ele>
        <time>2007-05-27T08:43:30Z</time>
      </trkpt>
      <trkpt lat="45.609633922576904" lon="8.977181911468506">
        <ele>204.8980712890625</ele>
        <time>2007-05-27T08:43:38Z</time>
      </trkpt>
      <trkpt lat="45.609848499298096" lon="8.977546691894531">
        <ele>205.3787841796875</ele>
        <time>2007-05-27T08:43:50Z</time>
      </trkpt>
      <trkpt lat="45.610041618347168" lon="8.977890014648438">
        <ele>205.3787841796875</ele>
        <time>2007-05-27T08:44:00Z</time>
      </trkpt>
      <trkpt lat="45.610277652740479" lon="8.978276252746582">
        <ele>206.340087890625</ele>
        <time>2007-05-27T08:44:10Z</time>
      </trkpt>
      <trkpt lat="45.610535144805908" lon="8.978126049041748">
        <ele>204.41748046875</ele>
        <time>2007-05-27T08:44:18Z</time>
      </trkpt>
      <trkpt lat="45.610878467559814" lon="8.977868556976318">
        <ele>203.9368896484375</ele>
        <time>2007-05-27T08:44:28Z</time>
      </trkpt>
      <trkpt lat="45.610942840576172" lon="8.97782564163208">
        <ele>203.9368896484375</ele>
        <time>2007-05-27T08:44:30Z</time>
      </trkpt>
      <trkpt lat="45.610942840576172" lon="8.977718353271484">
        <ele>203.9368896484375</ele>
        <time>2007-05-27T08:44:34Z</time>
      </trkpt>
      <trkpt lat="45.610835552215576" lon="8.977417945861816">
        <ele>204.8980712890625</ele>
        <time>2007-05-27T08:44:41Z</time>
      </trkpt>
      <trkpt lat="45.610642433166504" lon="8.977096080780029">
        <ele>204.8980712890625</ele>
        <time>2007-05-27T08:44:49Z</time>
      </trkpt>
      <trkpt lat="45.610599517822266" lon="8.977053165435791">
        <ele>204.8980712890625</ele>
        <time>2007-05-27T08:44:50Z</time>
      </trkpt>
      <trkpt lat="45.610578060150146" lon="8.976774215698242">
        <ele>205.3787841796875</ele>
        <time>2007-05-27T08:44:55Z</time>
      </trkpt>
      <trkpt lat="45.610449314117432" lon="8.976624011993408">
        <ele>205.8594970703125</ele>
        <time>2007-05-27T08:44:59Z</time>
      </trkpt>
      <trkpt lat="45.610384941101074" lon="8.976452350616455">
        <ele>205.8594970703125</ele>
        <time>2007-05-27T08:45:02Z</time>
      </trkpt>
      <trkpt lat="45.610299110412598" lon="8.976151943206787">
        <ele>205.8594970703125</ele>
        <time>2007-05-27T08:45:08Z</time>
      </trkpt>
      <trkpt lat="45.610277652740479" lon="8.975958824157715">
        <ele>206.340087890625</ele>
        <time>2007-05-27T08:45:12Z</time>
      </trkpt>
      <trkpt lat="45.61023473739624" lon="8.975937366485596">
        <ele>206.8206787109375</ele>
        <time>2007-05-27T08:45:13Z</time>
      </trkpt>
      <trkpt lat="45.610084533691406" lon="8.975679874420166">
        <ele>206.340087890625</ele>
        <time>2007-05-27T08:45:22Z</time>
      </trkpt>
      <trkpt lat="45.609955787658691" lon="8.975422382354736">
        <ele>205.8594970703125</ele>
        <time>2007-05-27T08:45:31Z</time>
      </trkpt>
      <trkpt lat="45.609762668609619" lon="8.975057601928711">
        <ele>205.3787841796875</ele>
        <time>2007-05-27T08:45:42Z</time>
      </trkpt>
      <trkpt lat="45.6097412109375" lon="8.974993228912354">
        <ele>205.3787841796875</ele>
        <time>2007-05-27T08:45:44Z</time>
      </trkpt>
      <trkpt lat="45.60948371887207" lon="8.975229263305664">
        <ele>204.8980712890625</ele>
        <time>2007-05-27T08:45:51Z</time>
      </trkpt>
      <trkpt lat="45.609054565429687" lon="8.97559404373169">
        <ele>207.7821044921875</ele>
        <time>2007-05-27T08:46:01Z</time>
      </trkpt>
      <trkpt lat="45.608882904052734" lon="8.975722789764404">
        <ele>207.3013916015625</ele>
        <time>2007-05-27T08:46:05Z</time>
      </trkpt>
      <trkpt lat="45.6087327003479" lon="8.975701332092285">
        <ele>207.3013916015625</ele>
        <time>2007-05-27T08:46:09Z</time>
      </trkpt>
      <trkpt lat="45.608711242675781" lon="8.975658416748047">
        <ele>207.3013916015625</ele>
        <time>2007-05-27T08:46:10Z</time>
      </trkpt>
      <trkpt lat="45.608346462249756" lon="8.975036144256592">
        <ele>206.340087890625</ele>
        <time>2007-05-27T08:46:22Z</time>
      </trkpt>
      <trkpt lat="45.608131885528564" lon="8.974735736846924">
        <ele>205.3787841796875</ele>
        <time>2007-05-27T08:46:29Z</time>
      </trkpt>
      <trkpt lat="45.607788562774658" lon="8.974456787109375">
        <ele>205.3787841796875</ele>
        <time>2007-05-27T08:46:36Z</time>
      </trkpt>
      <trkpt lat="45.607059001922607" lon="8.973963260650635">
        <ele>204.8980712890625</ele>
        <time>2007-05-27T08:46:51Z</time>
      </trkpt>
      <trkpt lat="45.606586933135986" lon="8.973684310913086">
        <ele>204.41748046875</ele>
        <time>2007-05-27T08:47:01Z</time>
      </trkpt>
      <trkpt lat="45.606071949005127" lon="8.97334098815918">
        <ele>204.41748046875</ele>
        <time>2007-05-27T08:47:12Z</time>
      </trkpt>
      <trkpt lat="45.605642795562744" lon="8.973104953765869">
        <ele>203.9368896484375</ele>
        <time>2007-05-27T08:47:21Z</time>
      </trkpt>
      <trkpt lat="45.605535507202148" lon="8.973040580749512">
        <ele>204.41748046875</ele>
        <time>2007-05-27T08:47:25Z</time>
      </trkpt>
      <trkpt lat="45.605406761169434" lon="8.972954750061035">
        <ele>204.8980712890625</ele>
        <time>2007-05-27T08:47:32Z</time>
      </trkpt>
      <trkpt lat="45.605063438415527" lon="8.972718715667725">
        <ele>205.3787841796875</ele>
        <time>2007-05-27T08:47:43Z</time>
      </trkpt>
      <trkpt lat="45.60474157333374" lon="8.972439765930176">
        <ele>205.3787841796875</ele>
        <time>2007-05-27T08:47:53Z</time>
      </trkpt>
      <trkpt lat="45.604569911956787" lon="8.97209644317627">
        <ele>205.8594970703125</ele>
        <time>2007-05-27T08:48:01Z</time>
      </trkpt>
      <trkpt lat="45.604484081268311" lon="8.971753120422363">
        <ele>206.340087890625</ele>
        <time>2007-05-27T08:48:08Z</time>
      </trkpt>
      <trkpt lat="45.604398250579834" lon="8.971796035766602">
        <ele>206.8206787109375</ele>
        <time>2007-05-27T08:48:12Z</time>
      </trkpt>
      <trkpt lat="45.604333877563477" lon="8.971860408782959">
        <ele>206.8206787109375</ele>
        <time>2007-05-27T08:48:14Z</time>
      </trkpt>
      <trkpt lat="45.603861808776855" lon="8.97233247756958">
        <ele>207.3013916015625</ele>
        <time>2007-05-27T08:48:26Z</time>
      </trkpt>
      <trkpt lat="45.603432655334473" lon="8.972783088684082">
        <ele>206.340087890625</ele>
        <time>2007-05-27T08:48:36Z</time>
      </trkpt>
      <trkpt lat="45.603089332580566" lon="8.973126411437988">
        <ele>206.340087890625</ele>
        <time>2007-05-27T08:48:44Z</time>
      </trkpt>
      <trkpt lat="45.602767467498779" lon="8.973512649536133">
        <ele>205.8594970703125</ele>
        <time>2007-05-27T08:48:52Z</time>
      </trkpt>
      <trkpt lat="45.602853298187256" lon="8.973791599273682">
        <ele>205.8594970703125</ele>
        <time>2007-05-27T08:48:57Z</time>
      </trkpt>
      <trkpt lat="45.603132247924805" lon="8.974392414093018">
        <ele>203.4561767578125</ele>
        <time>2007-05-27T08:49:07Z</time>
      </trkpt>
      <trkpt lat="45.6032395362854" lon="8.974564075469971">
        <ele>202.9754638671875</ele>
        <time>2007-05-27T08:49:10Z</time>
      </trkpt>
      <trkpt lat="45.603346824645996" lon="8.97484302520752">
        <ele>200.572265625</ele>
        <time>2007-05-27T08:49:15Z</time>
      </trkpt>
      <trkpt lat="45.603690147399902" lon="8.975400924682617">
        <ele>199.130126953125</ele>
        <time>2007-05-27T08:49:26Z</time>
      </trkpt>
      <trkpt lat="45.603775978088379" lon="8.975551128387451">
        <ele>198.6495361328125</ele>
        <time>2007-05-27T08:49:29Z</time>
      </trkpt>
      <trkpt lat="45.603904724121094" lon="8.975465297698975">
        <ele>198.6495361328125</ele>
        <time>2007-05-27T08:49:33Z</time>
      </trkpt>
      <trkpt lat="45.604333877563477" lon="8.975057601928711">
        <ele>199.61083984375</ele>
        <time>2007-05-27T08:49:43Z</time>
      </trkpt>
      <trkpt lat="45.604720115661621" lon="8.974628448486328">
        <ele>199.61083984375</ele>
        <time>2007-05-27T08:49:53Z</time>
      </trkpt>
      <trkpt lat="45.604956150054932" lon="8.974413871765137">
        <ele>199.61083984375</ele>
        <time>2007-05-27T08:49:59Z</time>
      </trkpt>
      <trkpt lat="45.605063438415527" lon="8.974499702453613">
        <ele>200.0916748046875</ele>
        <time>2007-05-27T08:50:04Z</time>
      </trkpt>
      <trkpt lat="45.60523509979248" lon="8.97484302520752">
        <ele>202.0142822265625</ele>
        <time>2007-05-27T08:50:13Z</time>
      </trkpt>
      <trkpt lat="45.605363845825195" lon="8.975057601928711">
        <ele>201.5335693359375</ele>
        <time>2007-05-27T08:50:19Z</time>
      </trkpt>
      <trkpt lat="45.605278015136719" lon="8.975164890289307">
        <ele>201.0528564453125</ele>
        <time>2007-05-27T08:50:23Z</time>
      </trkpt>
      <trkpt lat="45.605170726776123" lon="8.975250720977783">
        <ele>200.572265625</ele>
        <time>2007-05-27T08:50:26Z</time>
      </trkpt>
      <trkpt lat="45.60474157333374" lon="8.975744247436523">
        <ele>196.7269287109375</ele>
        <time>2007-05-27T08:50:38Z</time>
      </trkpt>
      <trkpt lat="45.604376792907715" lon="8.976130485534668">
        <ele>196.246337890625</ele>
        <time>2007-05-27T08:50:47Z</time>
      </trkpt>
      <trkpt lat="45.604248046875" lon="8.976259231567383">
        <ele>196.7269287109375</ele>
        <time>2007-05-27T08:50:50Z</time>
      </trkpt>
      <trkpt lat="45.604205131530762" lon="8.976409435272217">
        <ele>197.20751953125</ele>
        <time>2007-05-27T08:50:53Z</time>
      </trkpt>
      <trkpt lat="45.604226589202881" lon="8.976452350616455">
        <ele>197.20751953125</ele>
        <time>2007-05-27T08:50:54Z</time>
      </trkpt>
      <trkpt lat="45.604355335235596" lon="8.976602554321289">
        <ele>197.20751953125</ele>
        <time>2007-05-27T08:50:58Z</time>
      </trkpt>
      <trkpt lat="45.604677200317383" lon="8.977117538452148">
        <ele>196.246337890625</ele>
        <time>2007-05-27T08:51:08Z</time>
      </trkpt>
      <trkpt lat="45.604784488677979" lon="8.977267742156982">
        <ele>196.7269287109375</ele>
        <time>2007-05-27T08:51:11Z</time>
      </trkpt>
      <trkpt lat="45.604763031005859" lon="8.977525234222412">
        <ele>197.20751953125</ele>
        <time>2007-05-27T08:51:15Z</time>
      </trkpt>
      <trkpt lat="45.604419708251953" lon="8.977868556976318">
        <ele>197.20751953125</ele>
        <time>2007-05-27T08:51:23Z</time>
      </trkpt>
      <trkpt lat="45.603904724121094" lon="8.978233337402344">
        <ele>198.1689453125</ele>
        <time>2007-05-27T08:51:34Z</time>
      </trkpt>
      <trkpt lat="45.603303909301758" lon="8.978769779205322">
        <ele>197.688232421875</ele>
        <time>2007-05-27T08:51:48Z</time>
      </trkpt>
      <trkpt lat="45.602917671203613" lon="8.979156017303467">
        <ele>200.0916748046875</ele>
        <time>2007-05-27T08:51:57Z</time>
      </trkpt>
      <trkpt lat="45.602617263793945" lon="8.979499340057373">
        <ele>201.0528564453125</ele>
        <time>2007-05-27T08:52:05Z</time>
      </trkpt>
      <trkpt lat="45.602552890777588" lon="8.979606628417969">
        <ele>201.0528564453125</ele>
        <time>2007-05-27T08:52:07Z</time>
      </trkpt>
      <trkpt lat="45.602531433105469" lon="8.979864120483398">
        <ele>201.0528564453125</ele>
        <time>2007-05-27T08:52:11Z</time>
      </trkpt>
      <trkpt lat="45.602595806121826" lon="8.979971408843994">
        <ele>201.5335693359375</ele>
        <time>2007-05-27T08:52:13Z</time>
      </trkpt>
      <trkpt lat="45.602917671203613" lon="8.980507850646973">
        <ele>202.494873046875</ele>
        <time>2007-05-27T08:52:23Z</time>
      </trkpt>
      <trkpt lat="45.60300350189209" lon="8.980679512023926">
        <ele>202.494873046875</ele>
        <time>2007-05-27T08:52:26Z</time>
      </trkpt>
      <trkpt lat="45.603218078613281" lon="8.981215953826904">
        <ele>203.9368896484375</ele>
        <time>2007-05-27T08:52:35Z</time>
      </trkpt>
      <trkpt lat="45.603153705596924" lon="8.981409072875977">
        <ele>203.4561767578125</ele>
        <time>2007-05-27T08:52:39Z</time>
      </trkpt>
      <trkpt lat="45.602660179138184" lon="8.981688022613525">
        <ele>202.9754638671875</ele>
        <time>2007-05-27T08:52:50Z</time>
      </trkpt>
      <trkpt lat="45.602402687072754" lon="8.981902599334717">
        <ele>203.4561767578125</ele>
        <time>2007-05-27T08:52:57Z</time>
      </trkpt>
      <trkpt lat="45.602359771728516" lon="8.981945514678955">
        <ele>203.4561767578125</ele>
        <time>2007-05-27T08:52:59Z</time>
      </trkpt>
      <trkpt lat="45.602188110351562" lon="8.981795310974121">
        <ele>203.9368896484375</ele>
        <time>2007-05-27T08:53:05Z</time>
      </trkpt>
      <trkpt lat="45.602016448974609" lon="8.981494903564453">
        <ele>202.9754638671875</ele>
        <time>2007-05-27T08:53:13Z</time>
      </trkpt>
      <trkpt lat="45.60175895690918" lon="8.981108665466309">
        <ele>202.494873046875</ele>
        <time>2007-05-27T08:53:24Z</time>
      </trkpt>
      <trkpt lat="45.601544380187988" lon="8.980786800384522">
        <ele>203.4561767578125</ele>
        <time>2007-05-27T08:53:33Z</time>
      </trkpt>
      <trkpt lat="45.601394176483154" lon="8.980464935302734">
        <ele>200.572265625</ele>
        <time>2007-05-27T08:53:40Z</time>
      </trkpt>
      <trkpt lat="45.60150146484375" lon="8.980293273925781">
        <ele>201.0528564453125</ele>
        <time>2007-05-27T08:53:44Z</time>
      </trkpt>
      <trkpt lat="45.601673126220703" lon="8.980100154876709">
        <ele>201.0528564453125</ele>
        <time>2007-05-27T08:53:49Z</time>
      </trkpt>
      <trkpt lat="45.601587295532227" lon="8.979799747467041">
        <ele>201.5335693359375</ele>
        <time>2007-05-27T08:53:55Z</time>
      </trkpt>
      <trkpt lat="45.601308345794678" lon="8.979263305664063">
        <ele>202.0142822265625</ele>
        <time>2007-05-27T08:54:05Z</time>
      </trkpt>
      <trkpt lat="45.601050853729248" lon="8.978726863861084">
        <ele>201.5335693359375</ele>
        <time>2007-05-27T08:54:14Z</time>
      </trkpt>
      <trkpt lat="45.600600242614746" lon="8.977890014648438">
        <ele>202.0142822265625</ele>
        <time>2007-05-27T08:54:29Z</time>
      </trkpt>
      <trkpt lat="45.600428581237793" lon="8.977546691894531">
        <ele>202.0142822265625</ele>
        <time>2007-05-27T08:54:35Z</time>
      </trkpt>
      <trkpt lat="45.60049295425415" lon="8.977267742156982">
        <ele>201.5335693359375</ele>
        <time>2007-05-27T08:54:41Z</time>
      </trkpt>
      <trkpt lat="45.600879192352295" lon="8.976924419403076">
        <ele>200.572265625</ele>
        <time>2007-05-27T08:54:51Z</time>
      </trkpt>
      <trkpt lat="45.600986480712891" lon="8.976817131042481">
        <ele>201.0528564453125</ele>
        <time>2007-05-27T08:54:54Z</time>
      </trkpt>
      <trkpt lat="45.601372718811035" lon="8.97658109664917">
        <ele>200.572265625</ele>
        <time>2007-05-27T08:55:04Z</time>
      </trkpt>
      <trkpt lat="45.601780414581299" lon="8.976194858551025">
        <ele>200.572265625</ele>
        <time>2007-05-27T08:55:16Z</time>
      </trkpt>
      <trkpt lat="45.601737499237061" lon="8.975980281829834">
        <ele>202.0142822265625</ele>
        <time>2007-05-27T08:55:21Z</time>
      </trkpt>
      <trkpt lat="45.601651668548584" lon="8.975787162780762">
        <ele>202.494873046875</ele>
        <time>2007-05-27T08:55:25Z</time>
      </trkpt>
      <trkpt lat="45.601587295532227" lon="8.975679874420166">
        <ele>202.494873046875</ele>
        <time>2007-05-27T08:55:27Z</time>
      </trkpt>
      <trkpt lat="45.601308345794678" lon="8.975121974945068">
        <ele>202.494873046875</ele>
        <time>2007-05-27T08:55:37Z</time>
      </trkpt>
      <trkpt lat="45.600900650024414" lon="8.974349498748779">
        <ele>202.494873046875</ele>
        <time>2007-05-27T08:55:50Z</time>
      </trkpt>
      <trkpt lat="45.600621700286865" lon="8.97383451461792">
        <ele>202.494873046875</ele>
        <time>2007-05-27T08:55:59Z</time>
      </trkpt>
      <trkpt lat="45.600299835205078" lon="8.973212242126465">
        <ele>202.494873046875</ele>
        <time>2007-05-27T08:56:09Z</time>
      </trkpt>
      <trkpt lat="45.600235462188721" lon="8.97308349609375">
        <ele>202.494873046875</ele>
        <time>2007-05-27T08:56:11Z</time>
      </trkpt>
      <trkpt lat="45.600042343139648" lon="8.972997665405273">
        <ele>202.9754638671875</ele>
        <time>2007-05-27T08:56:15Z</time>
      </trkpt>
      <trkpt lat="45.59999942779541" lon="8.972997665405273">
        <ele>202.9754638671875</ele>
        <time>2007-05-27T08:56:16Z</time>
      </trkpt>
      <trkpt lat="45.599892139434814" lon="8.973062038421631">
        <ele>203.4561767578125</ele>
        <time>2007-05-27T08:56:18Z</time>
      </trkpt>
      <trkpt lat="45.599699020385742" lon="8.973019123077393">
        <ele>203.4561767578125</ele>
        <time>2007-05-27T08:56:22Z</time>
      </trkpt>
      <trkpt lat="45.599420070648193" lon="8.972439765930176">
        <ele>203.9368896484375</ele>
        <time>2007-05-27T08:56:30Z</time>
      </trkpt>
      <trkpt lat="45.599269866943359" lon="8.972203731536865">
        <ele>203.9368896484375</ele>
        <time>2007-05-27T08:56:34Z</time>
      </trkpt>
      <trkpt lat="45.599141120910645" lon="8.971860408782959">
        <ele>203.9368896484375</ele>
        <time>2007-05-27T08:56:39Z</time>
      </trkpt>
      <trkpt lat="45.598990917205811" lon="8.971538543701172">
        <ele>203.9368896484375</ele>
        <time>2007-05-27T08:56:44Z</time>
      </trkpt>
      <trkpt lat="45.598926544189453" lon="8.971431255340576">
        <ele>203.9368896484375</ele>
        <time>2007-05-27T08:56:46Z</time>
      </trkpt>
      <trkpt lat="45.598969459533691" lon="8.971152305603027">
        <ele>203.9368896484375</ele>
        <time>2007-05-27T08:56:50Z</time>
      </trkpt>
      <trkpt lat="45.59901237487793" lon="8.971109390258789">
        <ele>203.9368896484375</ele>
        <time>2007-05-27T08:56:51Z</time>
      </trkpt>
      <trkpt lat="45.599119663238525" lon="8.97083044052124">
        <ele>203.9368896484375</ele>
        <time>2007-05-27T08:56:56Z</time>
      </trkpt>
      <trkpt lat="45.599076747894287" lon="8.970701694488525">
        <ele>203.9368896484375</ele>
        <time>2007-05-27T08:56:58Z</time>
      </trkpt>
      <trkpt lat="45.598840713500977" lon="8.970036506652832">
        <ele>203.9368896484375</ele>
        <time>2007-05-27T08:57:09Z</time>
      </trkpt>
      <trkpt lat="45.598776340484619" lon="8.969929218292236">
        <ele>203.9368896484375</ele>
        <time>2007-05-27T08:57:11Z</time>
      </trkpt>
      <trkpt lat="45.598626136779785" lon="8.969693183898926">
        <ele>203.4561767578125</ele>
        <time>2007-05-27T08:57:16Z</time>
      </trkpt>
      <trkpt lat="45.598433017730713" lon="8.969542980194092">
        <ele>202.9754638671875</ele>
        <time>2007-05-27T08:57:21Z</time>
      </trkpt>
      <trkpt lat="45.598390102386475" lon="8.969542980194092">
        <ele>202.9754638671875</ele>
        <time>2007-05-27T08:57:22Z</time>
      </trkpt>
      <trkpt lat="45.598175525665283" lon="8.969671726226807">
        <ele>202.9754638671875</ele>
        <time>2007-05-27T08:57:27Z</time>
      </trkpt>
      <trkpt lat="45.597939491271973" lon="8.969886302947998">
        <ele>203.4561767578125</ele>
        <time>2007-05-27T08:57:33Z</time>
      </trkpt>
      <trkpt lat="45.597853660583496" lon="8.969950675964356">
        <ele>202.9754638671875</ele>
        <time>2007-05-27T08:57:35Z</time>
      </trkpt>
      <trkpt lat="45.597703456878662" lon="8.970315456390381">
        <ele>202.9754638671875</ele>
        <time>2007-05-27T08:57:41Z</time>
      </trkpt>
      <trkpt lat="45.597810745239258" lon="8.97059440612793">
        <ele>203.4561767578125</ele>
        <time>2007-05-27T08:57:46Z</time>
      </trkpt>
      <trkpt lat="45.59776782989502" lon="8.970808982849121">
        <ele>203.4561767578125</ele>
        <time>2007-05-27T08:57:50Z</time>
      </trkpt>
      <trkpt lat="45.597724914550781" lon="8.970851898193359">
        <ele>203.4561767578125</ele>
        <time>2007-05-27T08:57:51Z</time>
      </trkpt>
      <trkpt lat="45.597553253173828" lon="8.971045017242432">
        <ele>203.4561767578125</ele>
        <time>2007-05-27T08:57:56Z</time>
      </trkpt>
      <trkpt lat="45.597188472747803" lon="8.971431255340576">
        <ele>203.4561767578125</ele>
        <time>2007-05-27T08:58:06Z</time>
      </trkpt>
      <trkpt lat="45.596823692321777" lon="8.971817493438721">
        <ele>202.9754638671875</ele>
        <time>2007-05-27T08:58:15Z</time>
      </trkpt>
      <trkpt lat="45.596780776977539" lon="8.971860408782959">
        <ele>202.9754638671875</ele>
        <time>2007-05-27T08:58:16Z</time>
      </trkpt>
      <trkpt lat="45.596587657928467" lon="8.972010612487793">
        <ele>202.494873046875</ele>
        <time>2007-05-27T08:58:20Z</time>
      </trkpt>
      <trkpt lat="45.596544742584229" lon="8.972182273864746">
        <ele>203.4561767578125</ele>
        <time>2007-05-27T08:58:24Z</time>
      </trkpt>
      <trkpt lat="45.59675931930542" lon="8.972611427307129">
        <ele>202.494873046875</ele>
        <time>2007-05-27T08:58:32Z</time>
      </trkpt>
      <trkpt lat="45.596780776977539" lon="8.972675800323486">
        <ele>202.494873046875</ele>
        <time>2007-05-27T08:58:33Z</time>
      </trkpt>
      <trkpt lat="45.596888065338135" lon="8.972783088684082">
        <ele>202.494873046875</ele>
        <time>2007-05-27T08:58:36Z</time>
      </trkpt>
      <trkpt lat="45.597124099731445" lon="8.973062038421631">
        <ele>200.0916748046875</ele>
        <time>2007-05-27T08:58:43Z</time>
      </trkpt>
      <trkpt lat="45.597188472747803" lon="8.973169326782227">
        <ele>199.61083984375</ele>
        <time>2007-05-27T08:58:45Z</time>
      </trkpt>
      <trkpt lat="45.597531795501709" lon="8.973684310913086">
        <ele>200.0916748046875</ele>
        <time>2007-05-27T08:58:55Z</time>
      </trkpt>
      <trkpt lat="45.597853660583496" lon="8.974306583404541">
        <ele>200.0916748046875</ele>
        <time>2007-05-27T08:59:07Z</time>
      </trkpt>
      <trkpt lat="45.598068237304688" lon="8.974692821502686">
        <ele>199.61083984375</ele>
        <time>2007-05-27T08:59:15Z</time>
      </trkpt>
      <trkpt lat="45.598196983337402" lon="8.974950313568115">
        <ele>197.20751953125</ele>
        <time>2007-05-27T08:59:21Z</time>
      </trkpt>
      <trkpt lat="45.597789287567139" lon="8.975400924682617">
        <ele>197.20751953125</ele>
        <time>2007-05-27T08:59:31Z</time>
      </trkpt>
      <trkpt lat="45.597338676452637" lon="8.975872993469238">
        <ele>197.688232421875</ele>
        <time>2007-05-27T08:59:41Z</time>
      </trkpt>
      <trkpt lat="45.596952438354492" lon="8.976280689239502">
        <ele>199.130126953125</ele>
        <time>2007-05-27T08:59:50Z</time>
      </trkpt>
      <trkpt lat="45.596609115600586" lon="8.976645469665527">
        <ele>198.1689453125</ele>
        <time>2007-05-27T08:59:58Z</time>
      </trkpt>
      <trkpt lat="45.596566200256348" lon="8.976795673370361">
        <ele>197.20751953125</ele>
        <time>2007-05-27T09:00:01Z</time>
      </trkpt>
      <trkpt lat="45.596609115600586" lon="8.9768385887146">
        <ele>197.20751953125</ele>
        <time>2007-05-27T09:00:02Z</time>
      </trkpt>
      <trkpt lat="45.596866607666016" lon="8.977375030517578">
        <ele>197.20751953125</ele>
        <time>2007-05-27T09:00:11Z</time>
      </trkpt>
      <trkpt lat="45.596909523010254" lon="8.977460861206055">
        <ele>196.7269287109375</ele>
        <time>2007-05-27T09:00:13Z</time>
      </trkpt>
      <trkpt lat="45.597038269042969" lon="8.977503776550293">
        <ele>196.7269287109375</ele>
        <time>2007-05-27T09:00:16Z</time>
      </trkpt>
      <trkpt lat="45.597145557403564" lon="8.977375030517578">
        <ele>196.7269287109375</ele>
        <time>2007-05-27T09:00:20Z</time>
      </trkpt>
      <trkpt lat="45.597274303436279" lon="8.977160453796387">
        <ele>196.246337890625</ele>
        <time>2007-05-27T09:00:24Z</time>
      </trkpt>
      <trkpt lat="45.597617626190186" lon="8.976645469665527">
        <ele>195.284912109375</ele>
        <time>2007-05-27T09:00:35Z</time>
      </trkpt>
      <trkpt lat="45.598068237304688" lon="8.976194858551025">
        <ele>194.8043212890625</ele>
        <time>2007-05-27T09:00:47Z</time>
      </trkpt>
      <trkpt lat="45.598218441009521" lon="8.976066112518311">
        <ele>195.765625</ele>
        <time>2007-05-27T09:00:51Z</time>
      </trkpt>
      <trkpt lat="45.598304271697998" lon="8.975787162780762">
        <ele>196.246337890625</ele>
        <time>2007-05-27T09:00:56Z</time>
      </trkpt>
      <trkpt lat="45.598390102386475" lon="8.974971771240234">
        <ele>198.6495361328125</ele>
        <time>2007-05-27T09:01:09Z</time>
      </trkpt>
      <trkpt lat="45.598411560058594" lon="8.97484302520752">
        <ele>199.130126953125</ele>
        <time>2007-05-27T09:01:11Z</time>
      </trkpt>
      <trkpt lat="45.598518848419189" lon="8.974649906158447">
        <ele>199.61083984375</ele>
        <time>2007-05-27T09:01:15Z</time>
      </trkpt>
      <trkpt lat="45.599033832550049" lon="8.974134922027588">
        <ele>201.5335693359375</ele>
        <time>2007-05-27T09:01:29Z</time>
      </trkpt>
      <trkpt lat="45.599462985992432" lon="8.973662853240967">
        <ele>203.4561767578125</ele>
        <time>2007-05-27T09:01:41Z</time>
      </trkpt>
      <trkpt lat="45.599570274353027" lon="8.973555564880371">
        <ele>202.9754638671875</ele>
        <time>2007-05-27T09:01:44Z</time>
      </trkpt>
      <trkpt lat="45.599656105041504" lon="8.973641395568848">
        <ele>203.4561767578125</ele>
        <time>2007-05-27T09:01:48Z</time>
      </trkpt>
      <trkpt lat="45.599699020385742" lon="8.973748683929443">
        <ele>203.4561767578125</ele>
        <time>2007-05-27T09:01:50Z</time>
      </trkpt>
      <trkpt lat="45.59974193572998" lon="8.973920345306397">
        <ele>203.4561767578125</ele>
        <time>2007-05-27T09:01:53Z</time>
      </trkpt>
      <trkpt lat="45.59974193572998" lon="8.974027633666992">
        <ele>203.9368896484375</ele>
        <time>2007-05-27T09:01:55Z</time>
      </trkpt>
      <trkpt lat="45.599699020385742" lon="8.974263668060303">
        <ele>203.9368896484375</ele>
        <time>2007-05-27T09:01:59Z</time>
      </trkpt>
      <trkpt lat="45.599613189697266" lon="8.974499702453613">
        <ele>203.9368896484375</ele>
        <time>2007-05-27T09:02:03Z</time>
      </trkpt>
      <trkpt lat="45.599441528320313" lon="8.974800109863281">
        <ele>204.41748046875</ele>
        <time>2007-05-27T09:02:09Z</time>
      </trkpt>
      <trkpt lat="45.599269866943359" lon="8.975014686584473">
        <ele>204.8980712890625</ele>
        <time>2007-05-27T09:02:14Z</time>
      </trkpt>
      <trkpt lat="45.599141120910645" lon="8.975207805633545">
        <ele>205.3787841796875</ele>
        <time>2007-05-27T09:02:18Z</time>
      </trkpt>
      <trkpt lat="45.5987548828125" lon="8.975701332092285">
        <ele>206.8206787109375</ele>
        <time>2007-05-27T09:02:28Z</time>
      </trkpt>
      <trkpt lat="45.598583221435547" lon="8.975915908813477">
        <ele>207.7821044921875</ele>
        <time>2007-05-27T09:02:33Z</time>
      </trkpt>
      <trkpt lat="45.598626136779785" lon="8.976044654846191">
        <ele>207.7821044921875</ele>
        <time>2007-05-27T09:02:36Z</time>
      </trkpt>
      <trkpt lat="45.598733425140381" lon="8.976237773895264">
        <ele>207.7821044921875</ele>
        <time>2007-05-27T09:02:40Z</time>
      </trkpt>
      <trkpt lat="45.599055290222168" lon="8.976795673370361">
        <ele>205.8594970703125</ele>
        <time>2007-05-27T09:02:51Z</time>
      </trkpt>
      <trkpt lat="45.599377155303955" lon="8.977310657501221">
        <ele>203.9368896484375</ele>
        <time>2007-05-27T09:03:01Z</time>
      </trkpt>
      <trkpt lat="45.599677562713623" lon="8.977911472320557">
        <ele>202.9754638671875</ele>
        <time>2007-05-27T09:03:12Z</time>
      </trkpt>
      <trkpt lat="45.599935054779053" lon="8.978490829467773">
        <ele>203.4561767578125</ele>
        <time>2007-05-27T09:03:23Z</time>
      </trkpt>
      <trkpt lat="45.600235462188721" lon="8.979091644287109">
        <ele>203.4561767578125</ele>
        <time>2007-05-27T09:03:35Z</time>
      </trkpt>
      <trkpt lat="45.600450038909912" lon="8.979456424713135">
        <ele>202.494873046875</ele>
        <time>2007-05-27T09:03:43Z</time>
      </trkpt>
      <trkpt lat="45.600771903991699" lon="8.979971408843994">
        <ele>202.0142822265625</ele>
        <time>2007-05-27T09:03:53Z</time>
      </trkpt>
      <trkpt lat="45.601029396057129" lon="8.980443477630615">
        <ele>202.0142822265625</ele>
        <time>2007-05-27T09:04:03Z</time>
      </trkpt>
      <trkpt lat="45.601072311401367" lon="8.980550765991211">
        <ele>202.0142822265625</ele>
        <time>2007-05-27T09:04:05Z</time>
      </trkpt>
      <trkpt lat="45.600965023040771" lon="8.980722427368164">
        <ele>201.5335693359375</ele>
        <time>2007-05-27T09:04:09Z</time>
      </trkpt>
      <trkpt lat="45.60075044631958" lon="8.980958461761475">
        <ele>201.5335693359375</ele>
        <time>2007-05-27T09:04:15Z</time>
      </trkpt>
      <trkpt lat="45.60051441192627" lon="8.98108720779419">
        <ele>201.5335693359375</ele>
        <time>2007-05-27T09:04:20Z</time>
      </trkpt>
      <trkpt lat="45.600428581237793" lon="8.981108665466309">
        <ele>201.5335693359375</ele>
        <time>2007-05-27T09:04:22Z</time>
      </trkpt>
      <trkpt lat="45.599956512451172" lon="8.981022834777832">
        <ele>201.0528564453125</ele>
        <time>2007-05-27T09:04:32Z</time>
      </trkpt>
      <trkpt lat="45.599870681762695" lon="8.981001377105713">
        <ele>201.0528564453125</ele>
        <time>2007-05-27T09:04:34Z</time>
      </trkpt>
      <trkpt lat="45.599806308746338" lon="8.980851173400879">
        <ele>201.0528564453125</ele>
        <time>2007-05-27T09:04:38Z</time>
      </trkpt>
      <trkpt lat="45.5997633934021" lon="8.980658054351807">
        <ele>201.0528564453125</ele>
        <time>2007-05-27T09:04:41Z</time>
      </trkpt>
      <trkpt lat="45.599420070648193" lon="8.979949951171875">
        <ele>201.0528564453125</ele>
        <time>2007-05-27T09:04:53Z</time>
      </trkpt>
      <trkpt lat="45.599055290222168" lon="8.979263305664063">
        <ele>200.0916748046875</ele>
        <time>2007-05-27T09:05:05Z</time>
      </trkpt>
      <trkpt lat="45.599119663238525" lon="8.979091644287109">
        <ele>198.1689453125</ele>
        <time>2007-05-27T09:05:09Z</time>
      </trkpt>
      <trkpt lat="45.599184036254883" lon="8.979005813598633">
        <ele>198.6495361328125</ele>
        <time>2007-05-27T09:05:11Z</time>
      </trkpt>
      <trkpt lat="45.59924840927124" lon="8.978619575500488">
        <ele>198.6495361328125</ele>
        <time>2007-05-27T09:05:18Z</time>
      </trkpt>
      <trkpt lat="45.599184036254883" lon="8.978104591369629">
        <ele>198.6495361328125</ele>
        <time>2007-05-27T09:05:27Z</time>
      </trkpt>
      <trkpt lat="45.599184036254883" lon="8.977997303009033">
        <ele>198.6495361328125</ele>
        <time>2007-05-27T09:05:29Z</time>
      </trkpt>
      <trkpt lat="45.599312782287598" lon="8.977997303009033">
        <ele>197.20751953125</ele>
        <time>2007-05-27T09:05:35Z</time>
      </trkpt>
      <trkpt lat="45.599420070648193" lon="8.977975845336914">
        <ele>198.1689453125</ele>
        <time>2007-05-27T09:05:39Z</time>
      </trkpt>
      <trkpt lat="45.599420070648193" lon="8.977890014648438">
        <ele>198.1689453125</ele>
        <time>2007-05-27T09:05:42Z</time>
      </trkpt>
      <trkpt lat="45.599441528320313" lon="8.97782564163208">
        <ele>197.688232421875</ele>
        <time>2007-05-27T09:05:44Z</time>
      </trkpt>
      <trkpt lat="45.599420070648193" lon="8.977739810943604">
        <ele>198.1689453125</ele>
        <time>2007-05-27T09:05:48Z</time>
      </trkpt>
      <trkpt lat="45.599334239959717" lon="8.977761268615723">
        <ele>199.130126953125</ele>
        <time>2007-05-27T09:05:55Z</time>
      </trkpt>
      <trkpt lat="45.599334239959717" lon="8.977782726287842">
        <ele>200.0916748046875</ele>
        <time>2007-05-27T09:06:01Z</time>
      </trkpt>
      <trkpt lat="45.599055290222168" lon="8.977975845336914">
        <ele>199.61083984375</ele>
        <time>2007-05-27T09:06:09Z</time>
      </trkpt>
      <trkpt lat="45.598604679107666" lon="8.978426456451416">
        <ele>202.9754638671875</ele>
        <time>2007-05-27T09:06:20Z</time>
      </trkpt>
      <trkpt lat="45.598390102386475" lon="8.978619575500488">
        <ele>203.4561767578125</ele>
        <time>2007-05-27T09:06:25Z</time>
      </trkpt>
      <trkpt lat="45.598325729370117" lon="8.978769779205322">
        <ele>202.9754638671875</ele>
        <time>2007-05-27T09:06:28Z</time>
      </trkpt>
      <trkpt lat="45.598325729370117" lon="8.978984355926514">
        <ele>203.4561767578125</ele>
        <time>2007-05-27T09:06:32Z</time>
      </trkpt>
      <trkpt lat="45.598282814025879" lon="8.979091644287109">
        <ele>203.4561767578125</ele>
        <time>2007-05-27T09:06:34Z</time>
      </trkpt>
      <trkpt lat="45.598196983337402" lon="8.979349136352539">
        <ele>202.494873046875</ele>
        <time>2007-05-27T09:06:39Z</time>
      </trkpt>
      <trkpt lat="45.598239898681641" lon="8.979477882385254">
        <ele>202.0142822265625</ele>
        <time>2007-05-27T09:06:42Z</time>
      </trkpt>
      <trkpt lat="45.598433017730713" lon="8.979520797729492">
        <ele>202.494873046875</ele>
        <time>2007-05-27T09:06:47Z</time>
      </trkpt>
      <trkpt lat="45.598475933074951" lon="8.979628086090088">
        <ele>202.494873046875</ele>
        <time>2007-05-27T09:06:51Z</time>
      </trkpt>
      <trkpt lat="45.598475933074951" lon="8.979864120483398">
        <ele>203.9368896484375</ele>
        <time>2007-05-27T09:06:56Z</time>
      </trkpt>
      <trkpt lat="45.598540306091309" lon="8.980014324188232">
        <ele>202.9754638671875</ele>
        <time>2007-05-27T09:06:59Z</time>
      </trkpt>
      <trkpt lat="45.598604679107666" lon="8.980185985565186">
        <ele>202.9754638671875</ele>
        <time>2007-05-27T09:07:02Z</time>
      </trkpt>
      <trkpt lat="45.598840713500977" lon="8.980615139007568">
        <ele>203.4561767578125</ele>
        <time>2007-05-27T09:07:11Z</time>
      </trkpt>
      <trkpt lat="45.598862171173096" lon="8.980679512023926">
        <ele>203.4561767578125</ele>
        <time>2007-05-27T09:07:12Z</time>
      </trkpt>
      <trkpt lat="45.599184036254883" lon="8.981194496154785">
        <ele>202.494873046875</ele>
        <time>2007-05-27T09:07:23Z</time>
      </trkpt>
      <trkpt lat="45.599269866943359" lon="8.9813232421875">
        <ele>202.494873046875</ele>
        <time>2007-05-27T09:07:26Z</time>
      </trkpt>
      <trkpt lat="45.599205493927002" lon="8.981473445892334">
        <ele>201.5335693359375</ele>
        <time>2007-05-27T09:07:30Z</time>
      </trkpt>
      <trkpt lat="45.598819255828857" lon="8.981859683990479">
        <ele>201.0528564453125</ele>
        <time>2007-05-27T09:07:41Z</time>
      </trkpt>
      <trkpt lat="45.598604679107666" lon="8.98207426071167">
        <ele>201.0528564453125</ele>
        <time>2007-05-27T09:07:47Z</time>
      </trkpt>
      <trkpt lat="45.598475933074951" lon="8.982288837432861">
        <ele>200.572265625</ele>
        <time>2007-05-27T09:07:52Z</time>
      </trkpt>
      <trkpt lat="45.598626136779785" lon="8.98256778717041">
        <ele>200.572265625</ele>
        <time>2007-05-27T09:07:59Z</time>
      </trkpt>
      <trkpt lat="45.598883628845215" lon="8.982911109924316">
        <ele>202.494873046875</ele>
        <time>2007-05-27T09:08:08Z</time>
      </trkpt>
      <trkpt lat="45.599119663238525" lon="8.983147144317627">
        <ele>203.9368896484375</ele>
        <time>2007-05-27T09:08:16Z</time>
      </trkpt>
      <trkpt lat="45.599162578582764" lon="8.983275890350342">
        <ele>203.9368896484375</ele>
        <time>2007-05-27T09:08:19Z</time>
      </trkpt>
      <trkpt lat="45.598948001861572" lon="8.983469009399414">
        <ele>202.494873046875</ele>
        <time>2007-05-27T09:08:26Z</time>
      </trkpt>
      <trkpt lat="45.598776340484619" lon="8.983533382415772">
        <ele>202.494873046875</ele>
        <time>2007-05-27T09:08:31Z</time>
      </trkpt>
      <trkpt lat="45.598583221435547" lon="8.983447551727295">
        <ele>202.9754638671875</ele>
        <time>2007-05-27T09:08:36Z</time>
      </trkpt>
      <trkpt lat="45.598304271697998" lon="8.98306131362915">
        <ele>202.494873046875</ele>
        <time>2007-05-27T09:08:46Z</time>
      </trkpt>
      <trkpt lat="45.598111152648926" lon="8.982760906219482">
        <ele>200.0916748046875</ele>
        <time>2007-05-27T09:08:54Z</time>
      </trkpt>
      <trkpt lat="45.597960948944092" lon="8.982589244842529">
        <ele>198.1689453125</ele>
        <time>2007-05-27T09:09:00Z</time>
      </trkpt>
      <trkpt lat="45.597875118255615" lon="8.982653617858887">
        <ele>198.1689453125</ele>
        <time>2007-05-27T09:09:04Z</time>
      </trkpt>
      <trkpt lat="45.597617626190186" lon="8.982996940612793">
        <ele>197.20751953125</ele>
        <time>2007-05-27T09:09:13Z</time>
      </trkpt>
      <trkpt lat="45.597553253173828" lon="8.983104228973389">
        <ele>197.688232421875</ele>
        <time>2007-05-27T09:09:17Z</time>
      </trkpt>
      <trkpt lat="45.597553253173828" lon="8.983125686645508">
        <ele>198.1689453125</ele>
        <time>2007-05-27T09:09:19Z</time>
      </trkpt>
      <trkpt lat="45.597639083862305" lon="8.983340263366699">
        <ele>196.7269287109375</ele>
        <time>2007-05-27T09:09:26Z</time>
      </trkpt>
      <trkpt lat="45.597875118255615" lon="8.98381233215332">
        <ele>196.7269287109375</ele>
        <time>2007-05-27T09:09:36Z</time>
      </trkpt>
      <trkpt lat="45.597896575927734" lon="8.983876705169678">
        <ele>196.7269287109375</ele>
        <time>2007-05-27T09:09:37Z</time>
      </trkpt>
      <trkpt lat="45.597896575927734" lon="8.98406982421875">
        <ele>197.20751953125</ele>
        <time>2007-05-27T09:09:41Z</time>
      </trkpt>
      <trkpt lat="45.597810745239258" lon="8.984198570251465">
        <ele>197.20751953125</ele>
        <time>2007-05-27T09:09:44Z</time>
      </trkpt>
      <trkpt lat="45.597596168518066" lon="8.98432731628418">
        <ele>197.20751953125</ele>
        <time>2007-05-27T09:09:51Z</time>
      </trkpt>
      <trkpt lat="45.597403049468994" lon="8.984391689300537">
        <ele>195.765625</ele>
        <time>2007-05-27T09:09:58Z</time>
      </trkpt>
      <trkpt lat="45.597209930419922" lon="8.98456335067749">
        <ele>196.246337890625</ele>
        <time>2007-05-27T09:10:06Z</time>
      </trkpt>
      <trkpt lat="45.597145557403564" lon="8.984477519989014">
        <ele>194.32373046875</ele>
        <time>2007-05-27T09:10:11Z</time>
      </trkpt>
      <trkpt lat="45.597102642059326" lon="8.984284400939941">
        <ele>194.32373046875</ele>
        <time>2007-05-27T09:10:16Z</time>
      </trkpt>
      <trkpt lat="45.59701681137085" lon="8.983983993530273">
        <ele>194.32373046875</ele>
        <time>2007-05-27T09:10:27Z</time>
      </trkpt>
      <trkpt lat="45.596952438354492" lon="8.983769416809082">
        <ele>193.843017578125</ele>
        <time>2007-05-27T09:10:36Z</time>
      </trkpt>
      <trkpt lat="45.596845149993896" lon="8.983490467071533">
        <ele>192.8817138671875</ele>
        <time>2007-05-27T09:10:46Z</time>
      </trkpt>
      <trkpt lat="45.596866607666016" lon="8.983447551727295">
        <ele>192.8817138671875</ele>
        <time>2007-05-27T09:10:49Z</time>
      </trkpt>
      <trkpt lat="45.59699535369873" lon="8.983361721038818">
        <ele>192.8817138671875</ele>
        <time>2007-05-27T09:10:59Z</time>
      </trkpt>
      <trkpt lat="45.597295761108398" lon="8.983125686645508">
        <ele>193.843017578125</ele>
        <time>2007-05-27T09:11:11Z</time>
      </trkpt>
      <trkpt lat="45.597403049468994" lon="8.982911109924316">
        <ele>192.8817138671875</ele>
        <time>2007-05-27T09:11:19Z</time>
      </trkpt>
      <trkpt lat="45.597317218780518" lon="8.982696533203125">
        <ele>193.3623046875</ele>
        <time>2007-05-27T09:11:26Z</time>
      </trkpt>
      <trkpt lat="45.597102642059326" lon="8.982288837432861">
        <ele>194.32373046875</ele>
        <time>2007-05-27T09:11:37Z</time>
      </trkpt>
      <trkpt lat="45.596909523010254" lon="8.982009887695313">
        <ele>193.3623046875</ele>
        <time>2007-05-27T09:11:46Z</time>
      </trkpt>
      <trkpt lat="45.596780776977539" lon="8.981795310974121">
        <ele>193.3623046875</ele>
        <time>2007-05-27T09:11:52Z</time>
      </trkpt>
      <trkpt lat="45.596566200256348" lon="8.981988430023193">
        <ele>193.843017578125</ele>
        <time>2007-05-27T09:12:00Z</time>
      </trkpt>
      <trkpt lat="45.59626579284668" lon="8.982310295104981">
        <ele>194.32373046875</ele>
        <time>2007-05-27T09:12:10Z</time>
      </trkpt>
      <trkpt lat="45.59600830078125" lon="8.982503414154053">
        <ele>193.3623046875</ele>
        <time>2007-05-27T09:12:18Z</time>
      </trkpt>
      <trkpt lat="45.595836639404297" lon="8.982417583465576">
        <ele>193.3623046875</ele>
        <time>2007-05-27T09:12:24Z</time>
      </trkpt>
      <trkpt lat="45.595600605010986" lon="8.982052803039551">
        <ele>194.32373046875</ele>
        <time>2007-05-27T09:12:34Z</time>
      </trkpt>
      <trkpt lat="45.595557689666748" lon="8.981924057006836">
        <ele>193.843017578125</ele>
        <time>2007-05-27T09:12:37Z</time>
      </trkpt>
      <trkpt lat="45.595686435699463" lon="8.981709480285645">
        <ele>192.401123046875</ele>
        <time>2007-05-27T09:12:44Z</time>
      </trkpt>
      <trkpt lat="45.595943927764893" lon="8.981409072875977">
        <ele>191.9202880859375</ele>
        <time>2007-05-27T09:12:55Z</time>
      </trkpt>
      <trkpt lat="45.596115589141846" lon="8.981151580810547">
        <ele>193.843017578125</ele>
        <time>2007-05-27T09:13:03Z</time>
      </trkpt>
      <trkpt lat="45.596072673797607" lon="8.980915546417236">
        <ele>194.32373046875</ele>
        <time>2007-05-27T09:13:09Z</time>
      </trkpt>
      <trkpt lat="45.595815181732178" lon="8.980486392974854">
        <ele>195.765625</ele>
        <time>2007-05-27T09:13:21Z</time>
      </trkpt>
      <trkpt lat="45.595686435699463" lon="8.980293273925781">
        <ele>196.246337890625</ele>
        <time>2007-05-27T09:13:26Z</time>
      </trkpt>
      <trkpt lat="45.595643520355225" lon="8.980271816253662">
        <ele>196.7269287109375</ele>
        <time>2007-05-27T09:13:28Z</time>
      </trkpt>
      <trkpt lat="45.595321655273437" lon="8.980507850646973">
        <ele>196.7269287109375</ele>
        <time>2007-05-27T09:13:36Z</time>
      </trkpt>
      <trkpt lat="45.594913959503174" lon="8.980915546417236">
        <ele>195.765625</ele>
        <time>2007-05-27T09:13:48Z</time>
      </trkpt>
      <trkpt lat="45.59502124786377" lon="8.981173038482666">
        <ele>196.246337890625</ele>
        <time>2007-05-27T09:13:55Z</time>
      </trkpt>
      <trkpt lat="45.594956874847412" lon="8.981280326843262">
        <ele>195.284912109375</ele>
        <time>2007-05-27T09:14:00Z</time>
      </trkpt>
      <trkpt lat="45.594742298126221" lon="8.981387615203857">
        <ele>194.8043212890625</ele>
        <time>2007-05-27T09:14:07Z</time>
      </trkpt>
      <trkpt lat="45.594463348388672" lon="8.981430530548096">
        <ele>194.8043212890625</ele>
        <time>2007-05-27T09:14:15Z</time>
      </trkpt>
      <trkpt lat="45.594441890716553" lon="8.981430530548096">
        <ele>194.8043212890625</ele>
        <time>2007-05-27T09:14:16Z</time>
      </trkpt>
      <trkpt lat="45.594441890716553" lon="8.981194496154785">
        <ele>196.246337890625</ele>
        <time>2007-05-27T09:14:22Z</time>
      </trkpt>
      <trkpt lat="45.594463348388672" lon="8.980593681335449">
        <ele>197.688232421875</ele>
        <time>2007-05-27T09:14:34Z</time>
      </trkpt>
      <trkpt lat="45.594463348388672" lon="8.98007869720459">
        <ele>196.7269287109375</ele>
        <time>2007-05-27T09:14:45Z</time>
      </trkpt>
      <trkpt lat="45.594592094421387" lon="8.979756832122803">
        <ele>195.765625</ele>
        <time>2007-05-27T09:14:52Z</time>
      </trkpt>
      <trkpt lat="45.594892501831055" lon="8.979349136352539">
        <ele>195.284912109375</ele>
        <time>2007-05-27T09:15:04Z</time>
      </trkpt>
      <trkpt lat="45.59502124786377" lon="8.979220390319824">
        <ele>194.8043212890625</ele>
        <time>2007-05-27T09:15:08Z</time>
      </trkpt>
      <trkpt lat="45.595128536224365" lon="8.979177474975586">
        <ele>194.32373046875</ele>
        <time>2007-05-27T09:15:11Z</time>
      </trkpt>
      <trkpt lat="45.595343112945557" lon="8.979048728942871">
        <ele>193.843017578125</ele>
        <time>2007-05-27T09:15:15Z</time>
      </trkpt>
      <trkpt lat="45.595643520355225" lon="8.978769779205322">
        <ele>193.843017578125</ele>
        <time>2007-05-27T09:15:22Z</time>
      </trkpt>
      <trkpt lat="45.596029758453369" lon="8.978512287139893">
        <ele>193.3623046875</ele>
        <time>2007-05-27T09:15:34Z</time>
      </trkpt>
      <trkpt lat="45.596222877502441" lon="8.978362083435059">
        <ele>191.4395751953125</ele>
        <time>2007-05-27T09:15:41Z</time>
      </trkpt>
      <trkpt lat="45.596094131469727" lon="8.978061676025391">
        <ele>192.8817138671875</ele>
        <time>2007-05-27T09:15:51Z</time>
      </trkpt>
      <trkpt lat="45.595901012420654" lon="8.977804183959961">
        <ele>194.32373046875</ele>
        <time>2007-05-27T09:16:00Z</time>
      </trkpt>
      <trkpt lat="45.595729351043701" lon="8.977890014648438">
        <ele>193.843017578125</ele>
        <time>2007-05-27T09:16:07Z</time>
      </trkpt>
      <trkpt lat="45.595364570617676" lon="8.978297710418701">
        <ele>194.32373046875</ele>
        <time>2007-05-27T09:16:19Z</time>
      </trkpt>
      <trkpt lat="45.595064163208008" lon="8.978641033172607">
        <ele>194.32373046875</ele>
        <time>2007-05-27T09:16:29Z</time>
      </trkpt>
      <trkpt lat="45.594699382781982" lon="8.979048728942871">
        <ele>193.843017578125</ele>
        <time>2007-05-27T09:16:41Z</time>
      </trkpt>
      <trkpt lat="45.594356060028076" lon="8.979434967041016">
        <ele>193.843017578125</ele>
        <time>2007-05-27T09:16:51Z</time>
      </trkpt>
      <trkpt lat="45.59424877166748" lon="8.979520797729492">
        <ele>193.843017578125</ele>
        <time>2007-05-27T09:16:54Z</time>
      </trkpt>
      <trkpt lat="45.59401273727417" lon="8.979241847991943">
        <ele>193.843017578125</ele>
        <time>2007-05-27T09:17:02Z</time>
      </trkpt>
      <trkpt lat="45.593905448913574" lon="8.979048728942871">
        <ele>193.843017578125</ele>
        <time>2007-05-27T09:17:06Z</time>
      </trkpt>
      <trkpt lat="45.59375524520874" lon="8.97883415222168">
        <ele>193.843017578125</ele>
        <time>2007-05-27T09:17:11Z</time>
      </trkpt>
      <trkpt lat="45.593819618225098" lon="8.978598117828369">
        <ele>193.843017578125</ele>
        <time>2007-05-27T09:17:16Z</time>
      </trkpt>
      <trkpt lat="45.594055652618408" lon="8.978362083435059">
        <ele>193.843017578125</ele>
        <time>2007-05-27T09:17:23Z</time>
      </trkpt>
      <trkpt lat="45.594334602355957" lon="8.978104591369629">
        <ele>192.401123046875</ele>
        <time>2007-05-27T09:17:31Z</time>
      </trkpt>
      <trkpt lat="45.594656467437744" lon="8.977761268615723">
        <ele>192.401123046875</ele>
        <time>2007-05-27T09:17:42Z</time>
      </trkpt>
      <trkpt lat="45.594956874847412" lon="8.97733211517334">
        <ele>191.9202880859375</ele>
        <time>2007-05-27T09:17:52Z</time>
      </trkpt>
      <trkpt lat="45.595235824584961" lon="8.977010250091553">
        <ele>193.3623046875</ele>
        <time>2007-05-27T09:18:00Z</time>
      </trkpt>
      <trkpt lat="45.595579147338867" lon="8.976538181304932">
        <ele>194.32373046875</ele>
        <time>2007-05-27T09:18:11Z</time>
      </trkpt>
      <trkpt lat="45.595793724060059" lon="8.976345062255859">
        <ele>195.765625</ele>
        <time>2007-05-27T09:18:18Z</time>
      </trkpt>
      <trkpt lat="45.596029758453369" lon="8.976173400878906">
        <ele>196.246337890625</ele>
        <time>2007-05-27T09:18:25Z</time>
      </trkpt>
      <trkpt lat="45.596094131469727" lon="8.976130485534668">
        <ele>196.246337890625</ele>
        <time>2007-05-27T09:18:28Z</time>
      </trkpt>
      <trkpt lat="45.596115589141846" lon="8.97608757019043">
        <ele>197.20751953125</ele>
        <time>2007-05-27T09:18:29Z</time>
      </trkpt>
      <trkpt lat="45.596072673797607" lon="8.975851535797119">
        <ele>196.246337890625</ele>
        <time>2007-05-27T09:18:35Z</time>
      </trkpt>
      <trkpt lat="45.595793724060059" lon="8.975379467010498">
        <ele>195.765625</ele>
        <time>2007-05-27T09:18:47Z</time>
      </trkpt>
      <trkpt lat="45.595386028289795" lon="8.974800109863281">
        <ele>195.765625</ele>
        <time>2007-05-27T09:19:01Z</time>
      </trkpt>
      <trkpt lat="45.595321655273437" lon="8.974606990814209">
        <ele>195.765625</ele>
        <time>2007-05-27T09:19:06Z</time>
      </trkpt>
      <trkpt lat="45.595364570617676" lon="8.974435329437256">
        <ele>195.284912109375</ele>
        <time>2007-05-27T09:19:10Z</time>
      </trkpt>
      <trkpt lat="45.595407485961914" lon="8.974392414093018">
        <ele>195.284912109375</ele>
        <time>2007-05-27T09:19:11Z</time>
      </trkpt>
      <trkpt lat="45.595815181732178" lon="8.973920345306397">
        <ele>195.765625</ele>
        <time>2007-05-27T09:19:22Z</time>
      </trkpt>
      <trkpt lat="45.596308708190918" lon="8.973405361175537">
        <ele>195.765625</ele>
        <time>2007-05-27T09:19:34Z</time>
      </trkpt>
      <trkpt lat="45.596480369567871" lon="8.973233699798584">
        <ele>196.246337890625</ele>
        <time>2007-05-27T09:19:39Z</time>
      </trkpt>
      <trkpt lat="45.596458911895752" lon="8.973040580749512">
        <ele>196.7269287109375</ele>
        <time>2007-05-27T09:19:43Z</time>
      </trkpt>
      <trkpt lat="45.596287250518799" lon="8.972654342651367">
        <ele>197.20751953125</ele>
        <time>2007-05-27T09:19:51Z</time>
      </trkpt>
      <trkpt lat="45.59600830078125" lon="8.97209644317627">
        <ele>197.20751953125</ele>
        <time>2007-05-27T09:20:02Z</time>
      </trkpt>
      <trkpt lat="45.595664978027344" lon="8.971452713012695">
        <ele>198.1689453125</ele>
        <time>2007-05-27T09:20:14Z</time>
      </trkpt>
      <trkpt lat="45.595386028289795" lon="8.970873355865479">
        <ele>198.6495361328125</ele>
        <time>2007-05-27T09:20:25Z</time>
      </trkpt>
      <trkpt lat="45.595107078552246" lon="8.970293998718262">
        <ele>199.61083984375</ele>
        <time>2007-05-27T09:20:36Z</time>
      </trkpt>
      <trkpt lat="45.59499979019165" lon="8.97007942199707">
        <ele>199.130126953125</ele>
        <time>2007-05-27T09:20:40Z</time>
      </trkpt>
      <trkpt lat="45.594828128814697" lon="8.97010087966919">
        <ele>198.1689453125</ele>
        <time>2007-05-27T09:20:44Z</time>
      </trkpt>
      <trkpt lat="45.59450626373291" lon="8.970487117767334">
        <ele>201.0528564453125</ele>
        <time>2007-05-27T09:20:54Z</time>
      </trkpt>
      <trkpt lat="45.594291687011719" lon="8.970680236816406">
        <ele>201.0528564453125</ele>
        <time>2007-05-27T09:20:59Z</time>
      </trkpt>
      <trkpt lat="45.594034194946289" lon="8.971002101898193">
        <ele>201.5335693359375</ele>
        <time>2007-05-27T09:21:05Z</time>
      </trkpt>
      <trkpt lat="45.593883991241455" lon="8.971109390258789">
        <ele>201.0528564453125</ele>
        <time>2007-05-27T09:21:08Z</time>
      </trkpt>
      <trkpt lat="45.593733787536621" lon="8.971259593963623">
        <ele>201.0528564453125</ele>
        <time>2007-05-27T09:21:12Z</time>
      </trkpt>
      <trkpt lat="45.593626499176025" lon="8.971409797668457">
        <ele>200.572265625</ele>
        <time>2007-05-27T09:21:16Z</time>
      </trkpt>
      <trkpt lat="45.593497753143311" lon="8.971538543701172">
        <ele>200.0916748046875</ele>
        <time>2007-05-27T09:21:20Z</time>
      </trkpt>
      <trkpt lat="45.593304634094238" lon="8.971388339996338">
        <ele>200.0916748046875</ele>
        <time>2007-05-27T09:21:25Z</time>
      </trkpt>
      <trkpt lat="45.593111515045166" lon="8.971066474914551">
        <ele>200.0916748046875</ele>
        <time>2007-05-27T09:21:31Z</time>
      </trkpt>
      <trkpt lat="45.592982769012451" lon="8.970937728881836">
        <ele>198.6495361328125</ele>
        <time>2007-05-27T09:21:36Z</time>
      </trkpt>
      <trkpt lat="45.593025684356689" lon="8.97108793258667">
        <ele>198.1689453125</ele>
        <time>2007-05-27T09:21:39Z</time>
      </trkpt>
      <trkpt lat="45.593132972717285" lon="8.971366882324219">
        <ele>196.246337890625</ele>
        <time>2007-05-27T09:21:43Z</time>
      </trkpt>
      <trkpt lat="45.593175888061523" lon="8.97183895111084">
        <ele>193.843017578125</ele>
        <time>2007-05-27T09:21:48Z</time>
      </trkpt>
      <trkpt lat="45.593047142028809" lon="8.972160816192627">
        <ele>192.8817138671875</ele>
        <time>2007-05-27T09:21:52Z</time>
      </trkpt>
      <trkpt lat="45.592982769012451" lon="8.972225189208984">
        <ele>192.401123046875</ele>
        <time>2007-05-27T09:21:53Z</time>
      </trkpt>
      <trkpt lat="45.592811107635498" lon="8.972396850585938">
        <ele>191.4395751953125</ele>
        <time>2007-05-27T09:21:56Z</time>
      </trkpt>
      <trkpt lat="45.592639446258545" lon="8.972804546356201">
        <ele>188.5557861328125</ele>
        <time>2007-05-27T09:22:01Z</time>
      </trkpt>
      <trkpt lat="45.592489242553711" lon="8.973255157470703">
        <ele>184.2298583984375</ele>
        <time>2007-05-27T09:22:05Z</time>
      </trkpt>
      <trkpt lat="45.592296123504639" lon="8.973963260650635">
        <ele>179.4232177734375</ele>
        <time>2007-05-27T09:22:11Z</time>
      </trkpt>
      <trkpt lat="45.592231750488281" lon="8.974370956420898">
        <ele>177.981201171875</ele>
        <time>2007-05-27T09:22:15Z</time>
      </trkpt>
      <trkpt lat="45.592210292816162" lon="8.974542617797852">
        <ele>177.5006103515625</ele>
        <time>2007-05-27T09:22:17Z</time>
      </trkpt>
      <trkpt lat="45.592081546783447" lon="8.9748215675354">
        <ele>176.539306640625</ele>
        <time>2007-05-27T09:22:21Z</time>
      </trkpt>
      <trkpt lat="45.591995716094971" lon="8.974993228912354">
        <ele>176.539306640625</ele>
        <time>2007-05-27T09:22:24Z</time>
      </trkpt>
      <trkpt lat="45.591974258422852" lon="8.975229263305664">
        <ele>176.539306640625</ele>
        <time>2007-05-27T09:22:28Z</time>
      </trkpt>
      <trkpt lat="45.592060089111328" lon="8.975636959075928">
        <ele>176.05859375</ele>
        <time>2007-05-27T09:22:35Z</time>
      </trkpt>
      <trkpt lat="45.591995716094971" lon="8.975958824157715">
        <ele>175.577880859375</ele>
        <time>2007-05-27T09:22:41Z</time>
      </trkpt>
      <trkpt lat="45.591952800750732" lon="8.976237773895264">
        <ele>175.0972900390625</ele>
        <time>2007-05-27T09:22:46Z</time>
      </trkpt>
      <trkpt lat="45.59201717376709" lon="8.976516723632813">
        <ele>175.0972900390625</ele>
        <time>2007-05-27T09:22:51Z</time>
      </trkpt>
      <trkpt lat="45.592060089111328" lon="8.976624011993408">
        <ele>175.0972900390625</ele>
        <time>2007-05-27T09:22:54Z</time>
      </trkpt>
      <trkpt lat="45.591974258422852" lon="8.976645469665527">
        <ele>175.577880859375</ele>
        <time>2007-05-27T09:22:59Z</time>
      </trkpt>
      <trkpt lat="45.591931343078613" lon="8.976624011993408">
        <ele>175.577880859375</ele>
        <time>2007-05-27T09:23:00Z</time>
      </trkpt>
      <trkpt lat="45.591695308685303" lon="8.976430892944336">
        <ele>177.981201171875</ele>
        <time>2007-05-27T09:23:10Z</time>
      </trkpt>
      <trkpt lat="45.59152364730835" lon="8.976259231567383">
        <ele>179.90380859375</ele>
        <time>2007-05-27T09:23:20Z</time>
      </trkpt>
      <trkpt lat="45.591416358947754" lon="8.976173400878906">
        <ele>181.826416015625</ele>
        <time>2007-05-27T09:23:27Z</time>
      </trkpt>
      <trkpt lat="45.591309070587158" lon="8.976044654846191">
        <ele>181.826416015625</ele>
        <time>2007-05-27T09:23:35Z</time>
      </trkpt>
      <trkpt lat="45.591180324554443" lon="8.975765705108643">
        <ele>182.30712890625</ele>
        <time>2007-05-27T09:23:46Z</time>
      </trkpt>
      <trkpt lat="45.591223239898682" lon="8.975529670715332">
        <ele>182.787841796875</ele>
        <time>2007-05-27T09:23:55Z</time>
      </trkpt>
      <trkpt lat="45.591351985931396" lon="8.975229263305664">
        <ele>182.787841796875</ele>
        <time>2007-05-27T09:24:06Z</time>
      </trkpt>
      <trkpt lat="45.591480731964111" lon="8.974950313568115">
        <ele>182.787841796875</ele>
        <time>2007-05-27T09:24:17Z</time>
      </trkpt>
      <trkpt lat="45.59152364730835" lon="8.974692821502686">
        <ele>184.7105712890625</ele>
        <time>2007-05-27T09:24:27Z</time>
      </trkpt>
      <trkpt lat="45.591545104980469" lon="8.974542617797852">
        <ele>186.6331787109375</ele>
        <time>2007-05-27T09:24:37Z</time>
      </trkpt>
      <trkpt lat="45.591566562652588" lon="8.974456787109375">
        <ele>187.5943603515625</ele>
        <time>2007-05-27T09:24:44Z</time>
      </trkpt>
      <trkpt lat="45.591609477996826" lon="8.974263668060303">
        <ele>189.5169677734375</ele>
        <time>2007-05-27T09:24:55Z</time>
      </trkpt>
      <trkpt lat="45.591652393341064" lon="8.974049091339111">
        <ele>190.958984375</ele>
        <time>2007-05-27T09:25:07Z</time>
      </trkpt>
      <trkpt lat="45.591695308685303" lon="8.97383451461792">
        <ele>193.3623046875</ele>
        <time>2007-05-27T09:25:20Z</time>
      </trkpt>
      <trkpt lat="45.591716766357422" lon="8.973662853240967">
        <ele>194.8043212890625</ele>
        <time>2007-05-27T09:25:30Z</time>
      </trkpt>
      <trkpt lat="45.591781139373779" lon="8.973448276519775">
        <ele>195.765625</ele>
        <time>2007-05-27T09:25:41Z</time>
      </trkpt>
      <trkpt lat="45.591781139373779" lon="8.973276615142822">
        <ele>196.246337890625</ele>
        <time>2007-05-27T09:25:48Z</time>
      </trkpt>
      <trkpt lat="45.591738224029541" lon="8.973169326782227">
        <ele>196.246337890625</ele>
        <time>2007-05-27T09:25:53Z</time>
      </trkpt>
      <trkpt lat="45.591652393341064" lon="8.973212242126465">
        <ele>196.7269287109375</ele>
        <time>2007-05-27T09:25:58Z</time>
      </trkpt>
      <trkpt lat="45.591609477996826" lon="8.973298072814941">
        <ele>196.7269287109375</ele>
        <time>2007-05-27T09:26:01Z</time>
      </trkpt>
      <trkpt lat="45.591416358947754" lon="8.973748683929443">
        <ele>197.688232421875</ele>
        <time>2007-05-27T09:26:11Z</time>
      </trkpt>
      <trkpt lat="45.591201782226563" lon="8.974306583404541">
        <ele>197.20751953125</ele>
        <time>2007-05-27T09:26:22Z</time>
      </trkpt>
      <trkpt lat="45.590944290161133" lon="8.974907398223877">
        <ele>196.7269287109375</ele>
        <time>2007-05-27T09:26:33Z</time>
      </trkpt>
      <trkpt lat="45.590729713439941" lon="8.975379467010498">
        <ele>196.246337890625</ele>
        <time>2007-05-27T09:26:41Z</time>
      </trkpt>
      <trkpt lat="45.590708255767822" lon="8.975658416748047">
        <ele>197.20751953125</ele>
        <time>2007-05-27T09:26:45Z</time>
      </trkpt>
      <trkpt lat="45.590858459472656" lon="8.975980281829834">
        <ele>197.20751953125</ele>
        <time>2007-05-27T09:26:51Z</time>
      </trkpt>
      <trkpt lat="45.591201782226563" lon="8.976559638977051">
        <ele>197.688232421875</ele>
        <time>2007-05-27T09:27:03Z</time>
      </trkpt>
      <trkpt lat="45.591330528259277" lon="8.976795673370361">
        <ele>197.20751953125</ele>
        <time>2007-05-27T09:27:08Z</time>
      </trkpt>
      <trkpt lat="45.591437816619873" lon="8.976967334747315">
        <ele>196.7269287109375</ele>
        <time>2007-05-27T09:27:12Z</time>
      </trkpt>
      <trkpt lat="45.591673851013184" lon="8.977138996124268">
        <ele>193.843017578125</ele>
        <time>2007-05-27T09:27:17Z</time>
      </trkpt>
      <trkpt lat="45.592060089111328" lon="8.977417945861816">
        <ele>184.7105712890625</ele>
        <time>2007-05-27T09:27:23Z</time>
      </trkpt>
      <trkpt lat="45.592339038848877" lon="8.977353572845459">
        <ele>180.865234375</ele>
        <time>2007-05-27T09:27:27Z</time>
      </trkpt>
      <trkpt lat="45.592446327209473" lon="8.977203369140625">
        <ele>179.90380859375</ele>
        <time>2007-05-27T09:27:29Z</time>
      </trkpt>
      <trkpt lat="45.592660903930664" lon="8.976881504058838">
        <ele>178.942626953125</ele>
        <time>2007-05-27T09:27:34Z</time>
      </trkpt>
      <trkpt lat="45.592854022979736" lon="8.976624011993408">
        <ele>175.577880859375</ele>
        <time>2007-05-27T09:27:39Z</time>
      </trkpt>
      <trkpt lat="45.593047142028809" lon="8.97658109664917">
        <ele>174.1358642578125</ele>
        <time>2007-05-27T09:27:47Z</time>
      </trkpt>
      <trkpt lat="45.593154430389404" lon="8.976473808288574">
        <ele>174.6165771484375</ele>
        <time>2007-05-27T09:27:53Z</time>
      </trkpt>
      <trkpt lat="45.593326091766357" lon="8.976366519927979">
        <ele>176.539306640625</ele>
        <time>2007-05-27T09:28:02Z</time>
      </trkpt>
      <trkpt lat="45.593476295471191" lon="8.976387977600098">
        <ele>176.539306640625</ele>
        <time>2007-05-27T09:28:11Z</time>
      </trkpt>
      <trkpt lat="45.593605041503906" lon="8.976516723632813">
        <ele>178.942626953125</ele>
        <time>2007-05-27T09:28:20Z</time>
      </trkpt>
      <trkpt lat="45.593690872192383" lon="8.976688385009766">
        <ele>179.4232177734375</ele>
        <time>2007-05-27T09:28:28Z</time>
      </trkpt>
      <trkpt lat="45.59375524520874" lon="8.976860046386719">
        <ele>180.384521484375</ele>
        <time>2007-05-27T09:28:36Z</time>
      </trkpt>
      <trkpt lat="45.593841075897217" lon="8.977096080780029">
        <ele>181.3458251953125</ele>
        <time>2007-05-27T09:28:47Z</time>
      </trkpt>
      <trkpt lat="45.593883991241455" lon="8.977181911468506">
        <ele>181.3458251953125</ele>
        <time>2007-05-27T09:28:52Z</time>
      </trkpt>
      <trkpt lat="45.593883991241455" lon="8.977289199829102">
        <ele>181.3458251953125</ele>
        <time>2007-05-27T09:28:58Z</time>
      </trkpt>
      <trkpt lat="45.593883991241455" lon="8.977353572845459">
        <ele>181.3458251953125</ele>
        <time>2007-05-27T09:29:02Z</time>
      </trkpt>
      <trkpt lat="45.593841075897217" lon="8.977417945861816">
        <ele>182.30712890625</ele>
        <time>2007-05-27T09:29:10Z</time>
      </trkpt>
      <trkpt lat="45.593798160552979" lon="8.977503776550293">
        <ele>183.7490234375</ele>
        <time>2007-05-27T09:29:18Z</time>
      </trkpt>
      <trkpt lat="45.593733787536621" lon="8.977611064910889">
        <ele>185.191162109375</ele>
        <time>2007-05-27T09:29:28Z</time>
      </trkpt>
      <trkpt lat="45.593690872192383" lon="8.977696895599365">
        <ele>186.1524658203125</ele>
        <time>2007-05-27T09:29:36Z</time>
      </trkpt>
      <trkpt lat="45.593605041503906" lon="8.977761268615723">
        <ele>187.11376953125</ele>
        <time>2007-05-27T09:29:46Z</time>
      </trkpt>
      <trkpt lat="45.59351921081543" lon="8.977739810943604">
        <ele>188.0750732421875</ele>
        <time>2007-05-27T09:29:56Z</time>
      </trkpt>
      <trkpt lat="45.593454837799072" lon="8.977718353271484">
        <ele>189.5169677734375</ele>
        <time>2007-05-27T09:30:04Z</time>
      </trkpt>
      <trkpt lat="45.593369007110596" lon="8.977632522583008">
        <ele>192.401123046875</ele>
        <time>2007-05-27T09:30:14Z</time>
      </trkpt>
      <trkpt lat="45.593304634094238" lon="8.97756814956665">
        <ele>193.843017578125</ele>
        <time>2007-05-27T09:30:23Z</time>
      </trkpt>
      <trkpt lat="45.593218803405762" lon="8.977503776550293">
        <ele>195.765625</ele>
        <time>2007-05-27T09:30:32Z</time>
      </trkpt>
      <trkpt lat="45.593111515045166" lon="8.977417945861816">
        <ele>196.7269287109375</ele>
        <time>2007-05-27T09:30:41Z</time>
      </trkpt>
      <trkpt lat="45.592939853668213" lon="8.977353572845459">
        <ele>196.7269287109375</ele>
        <time>2007-05-27T09:30:50Z</time>
      </trkpt>
      <trkpt lat="45.592746734619141" lon="8.97756814956665">
        <ele>195.765625</ele>
        <time>2007-05-27T09:30:59Z</time>
      </trkpt>
      <trkpt lat="45.592532157897949" lon="8.97782564163208">
        <ele>195.284912109375</ele>
        <time>2007-05-27T09:31:09Z</time>
      </trkpt>
      <trkpt lat="45.592317581176758" lon="8.977997303009033">
        <ele>195.284912109375</ele>
        <time>2007-05-27T09:31:18Z</time>
      </trkpt>
      <trkpt lat="45.592103004455566" lon="8.977997303009033">
        <ele>195.284912109375</ele>
        <time>2007-05-27T09:31:24Z</time>
      </trkpt>
      <trkpt lat="45.591952800750732" lon="8.977890014648438">
        <ele>195.765625</ele>
        <time>2007-05-27T09:31:28Z</time>
      </trkpt>
      <trkpt lat="45.591652393341064" lon="8.977439403533936">
        <ele>195.765625</ele>
        <time>2007-05-27T09:31:39Z</time>
      </trkpt>
      <trkpt lat="45.591416358947754" lon="8.977460861206055">
        <ele>195.765625</ele>
        <time>2007-05-27T09:31:47Z</time>
      </trkpt>
      <trkpt lat="45.591244697570801" lon="8.977611064910889">
        <ele>195.284912109375</ele>
        <time>2007-05-27T09:31:53Z</time>
      </trkpt>
      <trkpt lat="45.590944290161133" lon="8.977997303009033">
        <ele>195.284912109375</ele>
        <time>2007-05-27T09:32:02Z</time>
      </trkpt>
      <trkpt lat="45.590665340423584" lon="8.978362083435059">
        <ele>195.765625</ele>
        <time>2007-05-27T09:32:11Z</time>
      </trkpt>
      <trkpt lat="45.590622425079346" lon="8.978447914123535">
        <ele>196.246337890625</ele>
        <time>2007-05-27T09:32:13Z</time>
      </trkpt>
      <trkpt lat="45.590643882751465" lon="8.978748321533203">
        <ele>197.20751953125</ele>
        <time>2007-05-27T09:32:18Z</time>
      </trkpt>
      <trkpt lat="45.590879917144775" lon="8.979198932647705">
        <ele>196.246337890625</ele>
        <time>2007-05-27T09:32:26Z</time>
      </trkpt>
      <trkpt lat="45.591309070587158" lon="8.980035781860352">
        <ele>197.20751953125</ele>
        <time>2007-05-27T09:32:39Z</time>
      </trkpt>
      <trkpt lat="45.591673851013184" lon="8.980743885040283">
        <ele>195.765625</ele>
        <time>2007-05-27T09:32:50Z</time>
      </trkpt>
      <trkpt lat="45.591781139373779" lon="8.980937004089356">
        <ele>195.284912109375</ele>
        <time>2007-05-27T09:32:53Z</time>
      </trkpt>
      <trkpt lat="45.591909885406494" lon="8.98106575012207">
        <ele>195.284912109375</ele>
        <time>2007-05-27T09:32:56Z</time>
      </trkpt>
      <trkpt lat="45.592210292816162" lon="8.980786800384522">
        <ele>194.8043212890625</ele>
        <time>2007-05-27T09:33:03Z</time>
      </trkpt>
      <trkpt lat="45.592403411865234" lon="8.980851173400879">
        <ele>193.843017578125</ele>
        <time>2007-05-27T09:33:07Z</time>
      </trkpt>
      <trkpt lat="45.592596530914307" lon="8.981151580810547">
        <ele>194.32373046875</ele>
        <time>2007-05-27T09:33:13Z</time>
      </trkpt>
      <trkpt lat="45.592811107635498" lon="8.981366157531738">
        <ele>193.843017578125</ele>
        <time>2007-05-27T09:33:19Z</time>
      </trkpt>
      <trkpt lat="45.593111515045166" lon="8.981902599334717">
        <ele>194.32373046875</ele>
        <time>2007-05-27T09:33:30Z</time>
      </trkpt>
      <trkpt lat="45.593390464782715" lon="8.982374668121338">
        <ele>194.32373046875</ele>
        <time>2007-05-27T09:33:39Z</time>
      </trkpt>
      <trkpt lat="45.593583583831787" lon="8.982696533203125">
        <ele>193.843017578125</ele>
        <time>2007-05-27T09:33:46Z</time>
      </trkpt>
      <trkpt lat="45.593669414520264" lon="8.982653617858887">
        <ele>194.8043212890625</ele>
        <time>2007-05-27T09:33:52Z</time>
      </trkpt>
      <trkpt lat="45.593798160552979" lon="8.982396125793457">
        <ele>193.843017578125</ele>
        <time>2007-05-27T09:34:00Z</time>
      </trkpt>
      <trkpt lat="45.594055652618408" lon="8.981966972351074">
        <ele>194.32373046875</ele>
        <time>2007-05-27T09:34:11Z</time>
      </trkpt>
      <trkpt lat="45.594313144683838" lon="8.981559276580811">
        <ele>193.3623046875</ele>
        <time>2007-05-27T09:34:23Z</time>
      </trkpt>
      <trkpt lat="45.594398975372314" lon="8.981430530548096">
        <ele>194.8043212890625</ele>
        <time>2007-05-27T09:34:27Z</time>
      </trkpt>
      <trkpt lat="45.594441890716553" lon="8.981451988220215">
        <ele>194.8043212890625</ele>
        <time>2007-05-27T09:34:29Z</time>
      </trkpt>
      <trkpt lat="45.594570636749268" lon="8.981623649597168">
        <ele>194.8043212890625</ele>
        <time>2007-05-27T09:34:34Z</time>
      </trkpt>
      <trkpt lat="45.594785213470459" lon="8.981859683990479">
        <ele>193.3623046875</ele>
        <time>2007-05-27T09:34:41Z</time>
      </trkpt>
      <trkpt lat="45.594806671142578" lon="8.981881141662598">
        <ele>193.3623046875</ele>
        <time>2007-05-27T09:34:42Z</time>
      </trkpt>
      <trkpt lat="45.595107078552246" lon="8.982481956481934">
        <ele>193.3623046875</ele>
        <time>2007-05-27T09:34:54Z</time>
      </trkpt>
      <trkpt lat="45.595214366912842" lon="8.982717990875244">
        <ele>193.3623046875</ele>
        <time>2007-05-27T09:34:59Z</time>
      </trkpt>
      <trkpt lat="45.595364570617676" lon="8.983361721038818">
        <ele>191.9202880859375</ele>
        <time>2007-05-27T09:35:11Z</time>
      </trkpt>
      <trkpt lat="45.595579147338867" lon="8.984005451202393">
        <ele>192.8817138671875</ele>
        <time>2007-05-27T09:35:24Z</time>
      </trkpt>
      <trkpt lat="45.595622062683105" lon="8.984220027923584">
        <ele>193.3623046875</ele>
        <time>2007-05-27T09:35:29Z</time>
      </trkpt>
      <trkpt lat="45.595450401306152" lon="8.984413146972656">
        <ele>193.3623046875</ele>
        <time>2007-05-27T09:35:35Z</time>
      </trkpt>
      <trkpt lat="45.595128536224365" lon="8.984735012054443">
        <ele>192.8817138671875</ele>
        <time>2007-05-27T09:35:43Z</time>
      </trkpt>
      <trkpt lat="45.594656467437744" lon="8.985185623168945">
        <ele>190.958984375</ele>
        <time>2007-05-27T09:35:55Z</time>
      </trkpt>
      <trkpt lat="45.594227313995361" lon="8.985593318939209">
        <ele>191.4395751953125</ele>
        <time>2007-05-27T09:36:07Z</time>
      </trkpt>
      <trkpt lat="45.593969821929932" lon="8.986001014709473">
        <ele>190.958984375</ele>
        <time>2007-05-27T09:36:18Z</time>
      </trkpt>
      <trkpt lat="45.593669414520264" lon="8.986387252807617">
        <ele>191.4395751953125</ele>
        <time>2007-05-27T09:36:30Z</time>
      </trkpt>
      <trkpt lat="45.593476295471191" lon="8.98655891418457">
        <ele>191.4395751953125</ele>
        <time>2007-05-27T09:36:38Z</time>
      </trkpt>
      <trkpt lat="45.593605041503906" lon="8.986837863922119">
        <ele>191.4395751953125</ele>
        <time>2007-05-27T09:36:46Z</time>
      </trkpt>
      <trkpt lat="45.593841075897217" lon="8.987181186676025">
        <ele>191.4395751953125</ele>
        <time>2007-05-27T09:36:55Z</time>
      </trkpt>
      <trkpt lat="45.594141483306885" lon="8.987739086151123">
        <ele>192.8817138671875</ele>
        <time>2007-05-27T09:37:09Z</time>
      </trkpt>
      <trkpt lat="45.594205856323242" lon="8.987910747528076">
        <ele>192.8817138671875</ele>
        <time>2007-05-27T09:37:13Z</time>
      </trkpt>
      <trkpt lat="45.59424877166748" lon="8.987975120544434">
        <ele>192.8817138671875</ele>
        <time>2007-05-27T09:37:16Z</time>
      </trkpt>
      <trkpt lat="45.594334602355957" lon="8.988339900970459">
        <ele>193.3623046875</ele>
        <time>2007-05-27T09:37:25Z</time>
      </trkpt>
      <trkpt lat="45.594356060028076" lon="8.988404273986816">
        <ele>193.3623046875</ele>
        <time>2007-05-27T09:37:27Z</time>
      </trkpt>
      <trkpt lat="45.594463348388672" lon="8.988468647003174">
        <ele>190.958984375</ele>
        <time>2007-05-27T09:37:34Z</time>
      </trkpt>
      <trkpt lat="45.594463348388672" lon="8.988490104675293">
        <ele>190.958984375</ele>
        <time>2007-05-27T09:37:35Z</time>
      </trkpt>
      <trkpt lat="45.594592094421387" lon="8.988618850708008">
        <ele>191.9202880859375</ele>
        <time>2007-05-27T09:37:47Z</time>
      </trkpt>
      <trkpt lat="45.594699382781982" lon="8.988747596740723">
        <ele>190.4783935546875</ele>
        <time>2007-05-27T09:37:51Z</time>
      </trkpt>
      <trkpt lat="45.595042705535889" lon="8.989348411560059">
        <ele>191.9202880859375</ele>
        <time>2007-05-27T09:38:04Z</time>
      </trkpt>
      <trkpt lat="45.595300197601318" lon="8.989756107330322">
        <ele>191.9202880859375</ele>
        <time>2007-05-27T09:38:13Z</time>
      </trkpt>
      <trkpt lat="45.595686435699463" lon="8.990442752838135">
        <ele>192.8817138671875</ele>
        <time>2007-05-27T09:38:27Z</time>
      </trkpt>
      <trkpt lat="45.596029758453369" lon="8.991107940673828">
        <ele>192.401123046875</ele>
        <time>2007-05-27T09:38:40Z</time>
      </trkpt>
      <trkpt lat="45.596437454223633" lon="8.991923332214356">
        <ele>189.5169677734375</ele>
        <time>2007-05-27T09:38:56Z</time>
      </trkpt>
      <trkpt lat="45.596737861633301" lon="8.992502689361572">
        <ele>190.4783935546875</ele>
        <time>2007-05-27T09:39:07Z</time>
      </trkpt>
      <trkpt lat="45.596973896026611" lon="8.992931842803955">
        <ele>191.4395751953125</ele>
        <time>2007-05-27T09:39:15Z</time>
      </trkpt>
      <trkpt lat="45.596909523010254" lon="8.993124961853027">
        <ele>190.958984375</ele>
        <time>2007-05-27T09:39:19Z</time>
      </trkpt>
      <trkpt lat="45.596566200256348" lon="8.993446826934815">
        <ele>189.9976806640625</ele>
        <time>2007-05-27T09:39:29Z</time>
      </trkpt>
      <trkpt lat="45.596308708190918" lon="8.993747234344482">
        <ele>189.9976806640625</ele>
        <time>2007-05-27T09:39:38Z</time>
      </trkpt>
      <trkpt lat="45.596179962158203" lon="8.993918895721436">
        <ele>189.9976806640625</ele>
        <time>2007-05-27T09:39:43Z</time>
      </trkpt>
      <trkpt lat="45.596222877502441" lon="8.994283676147461">
        <ele>189.036376953125</ele>
        <time>2007-05-27T09:39:50Z</time>
      </trkpt>
      <trkpt lat="45.596330165863037" lon="8.994691371917725">
        <ele>190.958984375</ele>
        <time>2007-05-27T09:39:57Z</time>
      </trkpt>
      <trkpt lat="45.596480369567871" lon="8.995099067687988">
        <ele>191.4395751953125</ele>
        <time>2007-05-27T09:40:05Z</time>
      </trkpt>
      <trkpt lat="45.596179962158203" lon="8.995399475097656">
        <ele>191.4395751953125</ele>
        <time>2007-05-27T09:40:14Z</time>
      </trkpt>
      <trkpt lat="45.595943927764893" lon="8.995678424835205">
        <ele>189.9976806640625</ele>
        <time>2007-05-27T09:40:23Z</time>
      </trkpt>
      <trkpt lat="45.595922470092773" lon="8.995914459228516">
        <ele>189.5169677734375</ele>
        <time>2007-05-27T09:40:28Z</time>
      </trkpt>
      <trkpt lat="45.596094131469727" lon="8.996257781982422">
        <ele>190.4783935546875</ele>
        <time>2007-05-27T09:40:36Z</time>
      </trkpt>
      <trkpt lat="45.596415996551514" lon="8.996644020080566">
        <ele>191.4395751953125</ele>
        <time>2007-05-27T09:40:48Z</time>
      </trkpt>
      <trkpt lat="45.596716403961182" lon="8.996944427490234">
        <ele>191.4395751953125</ele>
        <time>2007-05-27T09:40:59Z</time>
      </trkpt>
      <trkpt lat="45.597102642059326" lon="8.997437953948975">
        <ele>192.401123046875</ele>
        <time>2007-05-27T09:41:15Z</time>
      </trkpt>
      <trkpt lat="45.597274303436279" lon="8.997781276702881">
        <ele>192.401123046875</ele>
        <time>2007-05-27T09:41:24Z</time>
      </trkpt>
      <trkpt lat="45.597467422485352" lon="8.998103141784668">
        <ele>192.401123046875</ele>
        <time>2007-05-27T09:41:32Z</time>
      </trkpt>
      <trkpt lat="45.597703456878662" lon="8.998596668243408">
        <ele>191.9202880859375</ele>
        <time>2007-05-27T09:41:42Z</time>
      </trkpt>
      <trkpt lat="45.597939491271973" lon="8.999068737030029">
        <ele>191.4395751953125</ele>
        <time>2007-05-27T09:41:52Z</time>
      </trkpt>
      <trkpt lat="45.597960948944092" lon="8.999154567718506">
        <ele>191.9202880859375</ele>
        <time>2007-05-27T09:41:54Z</time>
      </trkpt>
      <trkpt lat="45.598046779632568" lon="8.99930477142334">
        <ele>192.401123046875</ele>
        <time>2007-05-27T09:41:58Z</time>
      </trkpt>
      <trkpt lat="45.598196983337402" lon="8.999605178833008">
        <ele>192.401123046875</ele>
        <time>2007-05-27T09:42:05Z</time>
      </trkpt>
      <trkpt lat="45.598411560058594" lon="8.999991416931152">
        <ele>192.401123046875</ele>
        <time>2007-05-27T09:42:15Z</time>
      </trkpt>
      <trkpt lat="45.598669052124023" lon="9.000463485717773">
        <ele>191.9202880859375</ele>
        <time>2007-05-27T09:42:29Z</time>
      </trkpt>
      <trkpt lat="45.598840713500977" lon="9.000785350799561">
        <ele>190.958984375</ele>
        <time>2007-05-27T09:42:39Z</time>
      </trkpt>
      <trkpt lat="45.599098205566406" lon="9.001257419586182">
        <ele>190.4783935546875</ele>
        <time>2007-05-27T09:42:51Z</time>
      </trkpt>
      <trkpt lat="45.599334239959717" lon="9.001686573028565">
        <ele>189.9976806640625</ele>
        <time>2007-05-27T09:43:02Z</time>
      </trkpt>
      <trkpt lat="45.599527359008789" lon="9.002072811126709">
        <ele>189.5169677734375</ele>
        <time>2007-05-27T09:43:12Z</time>
      </trkpt>
      <trkpt lat="45.59974193572998" lon="9.002394676208496">
        <ele>189.5169677734375</ele>
        <time>2007-05-27T09:43:20Z</time>
      </trkpt>
      <trkpt lat="45.599977970123291" lon="9.002909660339356">
        <ele>189.9976806640625</ele>
        <time>2007-05-27T09:43:31Z</time>
      </trkpt>
      <trkpt lat="45.600149631500244" lon="9.003446102142334">
        <ele>189.9976806640625</ele>
        <time>2007-05-27T09:43:42Z</time>
      </trkpt>
      <trkpt lat="45.600299835205078" lon="9.003853797912598">
        <ele>189.5169677734375</ele>
        <time>2007-05-27T09:43:51Z</time>
      </trkpt>
      <trkpt lat="45.600342750549316" lon="9.003896713256836">
        <ele>189.5169677734375</ele>
        <time>2007-05-27T09:43:52Z</time>
      </trkpt>
      <trkpt lat="45.600535869598389" lon="9.003767967224121">
        <ele>189.9976806640625</ele>
        <time>2007-05-27T09:43:58Z</time>
      </trkpt>
      <trkpt lat="45.60075044631958" lon="9.003639221191406">
        <ele>190.4783935546875</ele>
        <time>2007-05-27T09:44:04Z</time>
      </trkpt>
      <trkpt lat="45.600900650024414" lon="9.003896713256836">
        <ele>190.4783935546875</ele>
        <time>2007-05-27T09:44:11Z</time>
      </trkpt>
      <trkpt lat="45.60100793838501" lon="9.004089832305908">
        <ele>190.958984375</ele>
        <time>2007-05-27T09:44:17Z</time>
      </trkpt>
      <trkpt lat="45.601136684417725" lon="9.004454612731934">
        <ele>191.4395751953125</ele>
        <time>2007-05-27T09:44:25Z</time>
      </trkpt>
      <trkpt lat="45.601308345794678" lon="9.004926681518555">
        <ele>191.9202880859375</ele>
        <time>2007-05-27T09:44:36Z</time>
      </trkpt>
      <trkpt lat="45.60150146484375" lon="9.005463123321533">
        <ele>191.9202880859375</ele>
        <time>2007-05-27T09:44:49Z</time>
      </trkpt>
      <trkpt lat="45.601651668548584" lon="9.005827903747559">
        <ele>191.9202880859375</ele>
        <time>2007-05-27T09:44:59Z</time>
      </trkpt>
      <trkpt lat="45.601780414581299" lon="9.00580644607544">
        <ele>191.9202880859375</ele>
        <time>2007-05-27T09:45:04Z</time>
      </trkpt>
      <trkpt lat="45.602188110351562" lon="9.005506038665772">
        <ele>191.9202880859375</ele>
        <time>2007-05-27T09:45:19Z</time>
      </trkpt>
      <trkpt lat="45.602531433105469" lon="9.005270004272461">
        <ele>192.401123046875</ele>
        <time>2007-05-27T09:45:31Z</time>
      </trkpt>
      <trkpt lat="45.602574348449707" lon="9.005248546600342">
        <ele>193.3623046875</ele>
        <time>2007-05-27T09:45:33Z</time>
      </trkpt>
      <trkpt lat="45.602660179138184" lon="9.005398750305176">
        <ele>193.843017578125</ele>
        <time>2007-05-27T09:45:39Z</time>
      </trkpt>
      <trkpt lat="45.602810382843018" lon="9.005913734436035">
        <ele>193.843017578125</ele>
        <time>2007-05-27T09:45:51Z</time>
      </trkpt>
      <trkpt lat="45.602982044219971" lon="9.006385803222656">
        <ele>193.3623046875</ele>
        <time>2007-05-27T09:46:01Z</time>
      </trkpt>
      <trkpt lat="45.60300350189209" lon="9.006407260894775">
        <ele>193.3623046875</ele>
        <time>2007-05-27T09:46:02Z</time>
      </trkpt>
      <trkpt lat="45.603175163269043" lon="9.006321430206299">
        <ele>193.3623046875</ele>
        <time>2007-05-27T09:46:07Z</time>
      </trkpt>
      <trkpt lat="45.603454113006592" lon="9.006128311157227">
        <ele>193.3623046875</ele>
        <time>2007-05-27T09:46:15Z</time>
      </trkpt>
      <trkpt lat="45.603711605072021" lon="9.005978107452393">
        <ele>193.3623046875</ele>
        <time>2007-05-27T09:46:22Z</time>
      </trkpt>
      <trkpt lat="45.603926181793213" lon="9.005935192108154">
        <ele>193.843017578125</ele>
        <time>2007-05-27T09:46:27Z</time>
      </trkpt>
      <trkpt lat="45.604097843170166" lon="9.005849361419678">
        <ele>193.843017578125</ele>
        <time>2007-05-27T09:46:31Z</time>
      </trkpt>
      <trkpt lat="45.604526996612549" lon="9.00554895401001">
        <ele>193.843017578125</ele>
        <time>2007-05-27T09:46:41Z</time>
      </trkpt>
      <trkpt lat="45.604763031005859" lon="9.005420207977295">
        <ele>194.32373046875</ele>
        <time>2007-05-27T09:46:47Z</time>
      </trkpt>
      <trkpt lat="45.605170726776123" lon="9.005098342895508">
        <ele>194.32373046875</ele>
        <time>2007-05-27T09:46:58Z</time>
      </trkpt>
      <trkpt lat="45.605385303497314" lon="9.004926681518555">
        <ele>194.32373046875</ele>
        <time>2007-05-27T09:47:04Z</time>
      </trkpt>
      <trkpt lat="45.605535507202148" lon="9.00479793548584">
        <ele>194.32373046875</ele>
        <time>2007-05-27T09:47:08Z</time>
      </trkpt>
      <trkpt lat="45.605621337890625" lon="9.004690647125244">
        <ele>194.8043212890625</ele>
        <time>2007-05-27T09:47:11Z</time>
      </trkpt>
      <trkpt lat="45.605835914611816" lon="9.004690647125244">
        <ele>194.8043212890625</ele>
        <time>2007-05-27T09:47:16Z</time>
      </trkpt>
      <trkpt lat="45.605857372283936" lon="9.004733562469482">
        <ele>195.284912109375</ele>
        <time>2007-05-27T09:47:17Z</time>
      </trkpt>
      <trkpt lat="45.606071949005127" lon="9.004819393157959">
        <ele>195.284912109375</ele>
        <time>2007-05-27T09:47:23Z</time>
      </trkpt>
      <trkpt lat="45.606436729431152" lon="9.004583358764648">
        <ele>195.765625</ele>
        <time>2007-05-27T09:47:32Z</time>
      </trkpt>
      <trkpt lat="45.606908798217773" lon="9.004325866699219">
        <ele>196.246337890625</ele>
        <time>2007-05-27T09:47:42Z</time>
      </trkpt>
      <trkpt lat="45.606951713562012" lon="9.0043044090271">
        <ele>196.246337890625</ele>
        <time>2007-05-27T09:47:43Z</time>
      </trkpt>
      <trkpt lat="45.607187747955322" lon="9.004411697387695">
        <ele>196.7269287109375</ele>
        <time>2007-05-27T09:47:48Z</time>
      </trkpt>
      <trkpt lat="45.607230663299561" lon="9.004476070404053">
        <ele>196.7269287109375</ele>
        <time>2007-05-27T09:47:49Z</time>
      </trkpt>
      <trkpt lat="45.607445240020752" lon="9.004840850830078">
        <ele>196.7269287109375</ele>
        <time>2007-05-27T09:47:56Z</time>
      </trkpt>
      <trkpt lat="45.607445240020752" lon="9.005098342895508">
        <ele>196.246337890625</ele>
        <time>2007-05-27T09:48:00Z</time>
      </trkpt>
      <trkpt lat="45.607445240020752" lon="9.005227088928223">
        <ele>196.246337890625</ele>
        <time>2007-05-27T09:48:03Z</time>
      </trkpt>
      <trkpt lat="45.607531070709229" lon="9.005334377288818">
        <ele>196.7269287109375</ele>
        <time>2007-05-27T09:48:06Z</time>
      </trkpt>
      <trkpt lat="45.607595443725586" lon="9.005463123321533">
        <ele>196.7269287109375</ele>
        <time>2007-05-27T09:48:09Z</time>
      </trkpt>
      <trkpt lat="45.60748815536499" lon="9.005591869354248">
        <ele>196.7269287109375</ele>
        <time>2007-05-27T09:48:14Z</time>
      </trkpt>
      <trkpt lat="45.607080459594727" lon="9.005892276763916">
        <ele>196.7269287109375</ele>
        <time>2007-05-27T09:48:26Z</time>
      </trkpt>
      <trkpt lat="45.607037544250488" lon="9.005935192108154">
        <ele>196.7269287109375</ele>
        <time>2007-05-27T09:48:28Z</time>
      </trkpt>
      <trkpt lat="45.607101917266846" lon="9.006171226501465">
        <ele>197.20751953125</ele>
        <time>2007-05-27T09:48:33Z</time>
      </trkpt>
      <trkpt lat="45.607209205627441" lon="9.00653600692749">
        <ele>197.20751953125</ele>
        <time>2007-05-27T09:48:41Z</time>
      </trkpt>
      <trkpt lat="45.607123374938965" lon="9.006772041320801">
        <ele>196.7269287109375</ele>
        <time>2007-05-27T09:48:46Z</time>
      </trkpt>
      <trkpt lat="45.606887340545654" lon="9.006965160369873">
        <ele>195.284912109375</ele>
        <time>2007-05-27T09:48:54Z</time>
      </trkpt>
      <trkpt lat="45.606865882873535" lon="9.006986618041992">
        <ele>195.284912109375</ele>
        <time>2007-05-27T09:48:55Z</time>
      </trkpt>
      <trkpt lat="45.606780052185059" lon="9.007008075714111">
        <ele>195.284912109375</ele>
        <time>2007-05-27T09:48:57Z</time>
      </trkpt>
      <trkpt lat="45.606458187103271" lon="9.007222652435303">
        <ele>196.246337890625</ele>
        <time>2007-05-27T09:49:05Z</time>
      </trkpt>
      <trkpt lat="45.606093406677246" lon="9.007437229156494">
        <ele>197.20751953125</ele>
        <time>2007-05-27T09:49:14Z</time>
      </trkpt>
      <trkpt lat="45.605728626251221" lon="9.007630348205566">
        <ele>196.7269287109375</ele>
        <time>2007-05-27T09:49:23Z</time>
      </trkpt>
      <trkpt lat="45.60549259185791" lon="9.007844924926758">
        <ele>196.7269287109375</ele>
        <time>2007-05-27T09:49:30Z</time>
      </trkpt>
      <trkpt lat="45.605363845825195" lon="9.008016586303711">
        <ele>196.7269287109375</ele>
        <time>2007-05-27T09:49:34Z</time>
      </trkpt>
      <trkpt lat="45.605127811431885" lon="9.008252620697022">
        <ele>197.20751953125</ele>
        <time>2007-05-27T09:49:42Z</time>
      </trkpt>
      <trkpt lat="45.605041980743408" lon="9.008402824401856">
        <ele>197.20751953125</ele>
        <time>2007-05-27T09:49:46Z</time>
      </trkpt>
      <trkpt lat="45.605149269104004" lon="9.008853435516357">
        <ele>197.20751953125</ele>
        <time>2007-05-27T09:49:55Z</time>
      </trkpt>
      <trkpt lat="45.605320930480957" lon="9.009346961975098">
        <ele>196.7269287109375</ele>
        <time>2007-05-27T09:50:05Z</time>
      </trkpt>
      <trkpt lat="45.605428218841553" lon="9.009454250335693">
        <ele>196.7269287109375</ele>
        <time>2007-05-27T09:50:08Z</time>
      </trkpt>
      <trkpt lat="45.605578422546387" lon="9.009389877319336">
        <ele>197.20751953125</ele>
        <time>2007-05-27T09:50:12Z</time>
      </trkpt>
      <trkpt lat="45.60598611831665" lon="9.009110927581787">
        <ele>197.20751953125</ele>
        <time>2007-05-27T09:50:24Z</time>
      </trkpt>
      <trkpt lat="45.606050491333008" lon="9.009068012237549">
        <ele>197.20751953125</ele>
        <time>2007-05-27T09:50:26Z</time>
      </trkpt>
      <trkpt lat="45.606136322021484" lon="9.009175300598145">
        <ele>197.688232421875</ele>
        <time>2007-05-27T09:50:30Z</time>
      </trkpt>
      <trkpt lat="45.60624361038208" lon="9.009561538696289">
        <ele>197.688232421875</ele>
        <time>2007-05-27T09:50:39Z</time>
      </trkpt>
      <trkpt lat="45.606329441070557" lon="9.009840488433838">
        <ele>197.20751953125</ele>
        <time>2007-05-27T09:50:46Z</time>
      </trkpt>
      <trkpt lat="45.606436729431152" lon="9.010248184204102">
        <ele>197.20751953125</ele>
        <time>2007-05-27T09:50:55Z</time>
      </trkpt>
      <trkpt lat="45.606522560119629" lon="9.01052713394165">
        <ele>198.1689453125</ele>
        <time>2007-05-27T09:51:01Z</time>
      </trkpt>
      <trkpt lat="45.606651306152344" lon="9.010484218597412">
        <ele>198.1689453125</ele>
        <time>2007-05-27T09:51:05Z</time>
      </trkpt>
      <trkpt lat="45.60699462890625" lon="9.010226726531982">
        <ele>198.6495361328125</ele>
        <time>2007-05-27T09:51:14Z</time>
      </trkpt>
      <trkpt lat="45.607273578643799" lon="9.010055065155029">
        <ele>198.6495361328125</ele>
        <time>2007-05-27T09:51:23Z</time>
      </trkpt>
      <trkpt lat="45.607295036315918" lon="9.01003360748291">
        <ele>198.6495361328125</ele>
        <time>2007-05-27T09:51:24Z</time>
      </trkpt>
      <trkpt lat="45.607402324676514" lon="9.010334014892578">
        <ele>198.6495361328125</ele>
        <time>2007-05-27T09:51:30Z</time>
      </trkpt>
      <trkpt lat="45.607402324676514" lon="9.010398387908936">
        <ele>198.6495361328125</ele>
        <time>2007-05-27T09:51:31Z</time>
      </trkpt>
      <trkpt lat="45.607552528381348" lon="9.010655879974365">
        <ele>198.6495361328125</ele>
        <time>2007-05-27T09:51:37Z</time>
      </trkpt>
      <trkpt lat="45.607724189758301" lon="9.010655879974365">
        <ele>198.1689453125</ele>
        <time>2007-05-27T09:51:42Z</time>
      </trkpt>
      <trkpt lat="45.607810020446777" lon="9.010612964630127">
        <ele>198.6495361328125</ele>
        <time>2007-05-27T09:51:44Z</time>
      </trkpt>
      <trkpt lat="45.608110427856445" lon="9.010398387908936">
        <ele>198.6495361328125</ele>
        <time>2007-05-27T09:51:53Z</time>
      </trkpt>
      <trkpt lat="45.608282089233398" lon="9.010248184204102">
        <ele>199.130126953125</ele>
        <time>2007-05-27T09:52:00Z</time>
      </trkpt>
      <trkpt lat="45.608582496643066" lon="9.009969234466553">
        <ele>199.130126953125</ele>
        <time>2007-05-27T09:52:11Z</time>
      </trkpt>
      <trkpt lat="45.60875415802002" lon="9.0097975730896">
        <ele>199.61083984375</ele>
        <time>2007-05-27T09:52:17Z</time>
      </trkpt>
      <trkpt lat="45.608775615692139" lon="9.009561538696289">
        <ele>199.61083984375</ele>
        <time>2007-05-27T09:52:22Z</time>
      </trkpt>
      <trkpt lat="45.608839988708496" lon="9.009389877319336">
        <ele>199.61083984375</ele>
        <time>2007-05-27T09:52:26Z</time>
      </trkpt>
      <trkpt lat="45.609054565429687" lon="9.009153842926025">
        <ele>199.130126953125</ele>
        <time>2007-05-27T09:52:34Z</time>
      </trkpt>
      <trkpt lat="45.609076023101807" lon="9.008917808532715">
        <ele>199.130126953125</ele>
        <time>2007-05-27T09:52:39Z</time>
      </trkpt>
      <trkpt lat="45.60899019241333" lon="9.008381366729736">
        <ele>199.61083984375</ele>
        <time>2007-05-27T09:52:50Z</time>
      </trkpt>
      <trkpt lat="45.608925819396973" lon="9.008102416992188">
        <ele>199.61083984375</ele>
        <time>2007-05-27T09:52:59Z</time>
      </trkpt>
      <trkpt lat="45.608861446380615" lon="9.007952213287354">
        <ele>200.0916748046875</ele>
        <time>2007-05-27T09:53:07Z</time>
      </trkpt>
      <trkpt lat="45.608839988708496" lon="9.007866382598877">
        <ele>200.0916748046875</ele>
        <time>2007-05-27T09:53:11Z</time>
      </trkpt>
    </trkseg>
  </trk>

</gpx>
